<?xml version="1.0" encoding="UTF-8" standalone="no" ?>
<gpx xmlns="http://www.topografix.com/GPX/1/1" xmlns:xsi="http://www.w3.org/2001/XMLSchema-instance" xsi:schemaLocation="http://www.topografix.com/GPX/1/1 http://www.topografix.com/GPX/1/1/gpx.xsd" version="1.1" creator="VisuGPX - https://www.visugpx.com">
  <metadata>
    <name>Dondas - Sabré - 18 août 2017</name>
    <desc><![CDATA[Dondas - Sabré - 18 août 2017 -----------]]></desc>
  </metadata>
  <trk>
    <name><![CDATA[2017-08-18T08:42:43Z]]></name>
    <trkseg>
      <trkpt lat="44.21998" lon="0.84557">
        <ele>166.691</ele>
        <time>2017-08-18T08:42:44Z</time>
      </trkpt>
      <trkpt lat="44.21991" lon="0.84556">
        <ele>166.701</ele>
        <time>2017-08-18T08:42:48Z</time>
      </trkpt>
      <trkpt lat="44.21989" lon="0.84564">
        <ele>166.251</ele>
        <time>2017-08-18T08:42:52Z</time>
      </trkpt>
      <trkpt lat="44.21997" lon="0.84592">
        <ele>165.38</ele>
        <time>2017-08-18T08:43:00Z</time>
      </trkpt>
      <trkpt lat="44.22009" lon="0.84621">
        <ele>164.82</ele>
        <time>2017-08-18T08:43:07Z</time>
      </trkpt>
      <trkpt lat="44.22028" lon="0.84647">
        <ele>165.451</ele>
        <time>2017-08-18T08:43:13Z</time>
      </trkpt>
      <trkpt lat="44.22049" lon="0.84675">
        <ele>168.333</ele>
        <time>2017-08-18T08:43:20Z</time>
      </trkpt>
      <trkpt lat="44.22056" lon="0.84685">
        <ele>168.663</ele>
        <time>2017-08-18T08:43:23Z</time>
      </trkpt>
      <trkpt lat="44.22053" lon="0.847">
        <ele>168.797</ele>
        <time>2017-08-18T08:43:27Z</time>
      </trkpt>
      <trkpt lat="44.22041" lon="0.84735">
        <ele>168.651</ele>
        <time>2017-08-18T08:43:36Z</time>
      </trkpt>
      <trkpt lat="44.22031" lon="0.84773">
        <ele>169.774</ele>
        <time>2017-08-18T08:43:45Z</time>
      </trkpt>
      <trkpt lat="44.22018" lon="0.84804">
        <ele>172.176</ele>
        <time>2017-08-18T08:43:53Z</time>
      </trkpt>
      <trkpt lat="44.22001" lon="0.84846">
        <ele>170.631</ele>
        <time>2017-08-18T08:44:04Z</time>
      </trkpt>
      <trkpt lat="44.21989" lon="0.84881">
        <ele>170.594</ele>
        <time>2017-08-18T08:44:13Z</time>
      </trkpt>
      <trkpt lat="44.21975" lon="0.84915">
        <ele>170.613</ele>
        <time>2017-08-18T08:44:22Z</time>
      </trkpt>
      <trkpt lat="44.21966" lon="0.84931">
        <ele>170.721</ele>
        <time>2017-08-18T08:44:27Z</time>
      </trkpt>
      <trkpt lat="44.21969" lon="0.84947">
        <ele>170.825</ele>
        <time>2017-08-18T08:44:32Z</time>
      </trkpt>
      <trkpt lat="44.21989" lon="0.84975">
        <ele>171.832</ele>
        <time>2017-08-18T08:44:42Z</time>
      </trkpt>
      <trkpt lat="44.22005" lon="0.84998">
        <ele>172.818</ele>
        <time>2017-08-18T08:44:50Z</time>
      </trkpt>
      <trkpt lat="44.22025" lon="0.85027">
        <ele>173.495</ele>
        <time>2017-08-18T08:44:59Z</time>
      </trkpt>
      <trkpt lat="44.22058" lon="0.85068">
        <ele>174.004</ele>
        <time>2017-08-18T08:45:11Z</time>
      </trkpt>
      <trkpt lat="44.22082" lon="0.85088">
        <ele>174.211</ele>
        <time>2017-08-18T08:45:19Z</time>
      </trkpt>
      <trkpt lat="44.22114" lon="0.85114">
        <ele>174.571</ele>
        <time>2017-08-18T08:45:29Z</time>
      </trkpt>
      <trkpt lat="44.22147" lon="0.85149">
        <ele>175.022</ele>
        <time>2017-08-18T08:45:40Z</time>
      </trkpt>
      <trkpt lat="44.22171" lon="0.85186">
        <ele>175.582</ele>
        <time>2017-08-18T08:45:50Z</time>
      </trkpt>
      <trkpt lat="44.22196" lon="0.85231">
        <ele>177.132</ele>
        <time>2017-08-18T08:46:02Z</time>
      </trkpt>
      <trkpt lat="44.22209" lon="0.85254">
        <ele>178.733</ele>
        <time>2017-08-18T08:46:10Z</time>
      </trkpt>
      <trkpt lat="44.22224" lon="0.85284">
        <ele>181.083</ele>
        <time>2017-08-18T08:46:21Z</time>
      </trkpt>
      <trkpt lat="44.22236" lon="0.85307">
        <ele>182.763</ele>
        <time>2017-08-18T08:46:29Z</time>
      </trkpt>
      <trkpt lat="44.22245" lon="0.85328">
        <ele>184.013</ele>
        <time>2017-08-18T08:46:36Z</time>
      </trkpt>
      <trkpt lat="44.22257" lon="0.85359">
        <ele>185.853</ele>
        <time>2017-08-18T08:46:47Z</time>
      </trkpt>
      <trkpt lat="44.22269" lon="0.85398">
        <ele>187.513</ele>
        <time>2017-08-18T08:47:00Z</time>
      </trkpt>
      <trkpt lat="44.22277" lon="0.85428">
        <ele>186.882</ele>
        <time>2017-08-18T08:47:07Z</time>
      </trkpt>
      <trkpt lat="44.22285" lon="0.85466">
        <ele>185.692</ele>
        <time>2017-08-18T08:47:13Z</time>
      </trkpt>
      <trkpt lat="44.22298" lon="0.85536">
        <ele>184.643</ele>
        <time>2017-08-18T08:47:22Z</time>
      </trkpt>
      <trkpt lat="44.22304" lon="0.85575">
        <ele>185.073</ele>
        <time>2017-08-18T08:47:28Z</time>
      </trkpt>
      <trkpt lat="44.2231" lon="0.85617">
        <ele>186.264</ele>
        <time>2017-08-18T08:47:36Z</time>
      </trkpt>
      <trkpt lat="44.22314" lon="0.85662">
        <ele>187.854</ele>
        <time>2017-08-18T08:47:46Z</time>
      </trkpt>
      <trkpt lat="44.22318" lon="0.8569">
        <ele>188.713</ele>
        <time>2017-08-18T08:47:53Z</time>
      </trkpt>
      <trkpt lat="44.22327" lon="0.85735">
        <ele>189.964</ele>
        <time>2017-08-18T08:48:04Z</time>
      </trkpt>
      <trkpt lat="44.22338" lon="0.8578">
        <ele>190.774</ele>
        <time>2017-08-18T08:48:14Z</time>
      </trkpt>
      <trkpt lat="44.2235" lon="0.8583">
        <ele>191.564</ele>
        <time>2017-08-18T08:48:25Z</time>
      </trkpt>
      <trkpt lat="44.22362" lon="0.85881">
        <ele>192.024</ele>
        <time>2017-08-18T08:48:36Z</time>
      </trkpt>
      <trkpt lat="44.22369" lon="0.85906">
        <ele>192.254</ele>
        <time>2017-08-18T08:48:42Z</time>
      </trkpt>
      <trkpt lat="44.22378" lon="0.85942">
        <ele>192.634</ele>
        <time>2017-08-18T08:48:50Z</time>
      </trkpt>
      <trkpt lat="44.22391" lon="0.85984">
        <ele>192.013</ele>
        <time>2017-08-18T08:48:59Z</time>
      </trkpt>
      <trkpt lat="44.224" lon="0.86017">
        <ele>190.372</ele>
        <time>2017-08-18T08:49:04Z</time>
      </trkpt>
      <trkpt lat="44.22414" lon="0.86071">
        <ele>187.562</ele>
        <time>2017-08-18T08:49:10Z</time>
      </trkpt>
      <trkpt lat="44.22432" lon="0.86149">
        <ele>184.693</ele>
        <time>2017-08-18T08:49:17Z</time>
      </trkpt>
      <trkpt lat="44.22441" lon="0.86213">
        <ele>184.795</ele>
        <time>2017-08-18T08:49:23Z</time>
      </trkpt>
      <trkpt lat="44.22447" lon="0.86261">
        <ele>185.425</ele>
        <time>2017-08-18T08:49:29Z</time>
      </trkpt>
      <trkpt lat="44.22451" lon="0.86293">
        <ele>186.125</ele>
        <time>2017-08-18T08:49:35Z</time>
      </trkpt>
      <trkpt lat="44.22453" lon="0.86319">
        <ele>185.975</ele>
        <time>2017-08-18T08:49:42Z</time>
      </trkpt>
      <trkpt lat="44.22457" lon="0.86345">
        <ele>184.674</ele>
        <time>2017-08-18T08:49:48Z</time>
      </trkpt>
      <trkpt lat="44.22458" lon="0.8635">
        <ele>184.524</ele>
        <time>2017-08-18T08:49:49Z</time>
      </trkpt>
      <trkpt lat="44.22456" lon="0.86381">
        <ele>184.244</ele>
        <time>2017-08-18T08:49:54Z</time>
      </trkpt>
      <trkpt lat="44.22441" lon="0.86428">
        <ele>184.584</ele>
        <time>2017-08-18T08:50:03Z</time>
      </trkpt>
      <trkpt lat="44.22433" lon="0.86464">
        <ele>185.776</ele>
        <time>2017-08-18T08:50:10Z</time>
      </trkpt>
      <trkpt lat="44.22438" lon="0.86483">
        <ele>186.126</ele>
        <time>2017-08-18T08:50:14Z</time>
      </trkpt>
      <trkpt lat="44.22464" lon="0.86531">
        <ele>188.367</ele>
        <time>2017-08-18T08:50:26Z</time>
      </trkpt>
      <trkpt lat="44.22491" lon="0.86572">
        <ele>189.526</ele>
        <time>2017-08-18T08:50:37Z</time>
      </trkpt>
      <trkpt lat="44.22524" lon="0.86611">
        <ele>190.258</ele>
        <time>2017-08-18T08:50:48Z</time>
      </trkpt>
      <trkpt lat="44.22557" lon="0.86639">
        <ele>189.545</ele>
        <time>2017-08-18T08:50:57Z</time>
      </trkpt>
      <trkpt lat="44.22605" lon="0.86666">
        <ele>189.127</ele>
        <time>2017-08-18T08:51:09Z</time>
      </trkpt>
      <trkpt lat="44.22642" lon="0.86687">
        <ele>189.777</ele>
        <time>2017-08-18T08:51:19Z</time>
      </trkpt>
      <trkpt lat="44.22672" lon="0.86706">
        <ele>191.038</ele>
        <time>2017-08-18T08:51:28Z</time>
      </trkpt>
      <trkpt lat="44.22707" lon="0.86729">
        <ele>192.818</ele>
        <time>2017-08-18T08:51:39Z</time>
      </trkpt>
      <trkpt lat="44.22729" lon="0.86745">
        <ele>194.448</ele>
        <time>2017-08-18T08:51:46Z</time>
      </trkpt>
      <trkpt lat="44.22747" lon="0.86769">
        <ele>196.858</ele>
        <time>2017-08-18T08:51:53Z</time>
      </trkpt>
      <trkpt lat="44.2277" lon="0.86814">
        <ele>199.768</ele>
        <time>2017-08-18T08:52:04Z</time>
      </trkpt>
      <trkpt lat="44.22786" lon="0.86866">
        <ele>200.539</ele>
        <time>2017-08-18T08:52:15Z</time>
      </trkpt>
      <trkpt lat="44.22799" lon="0.86929">
        <ele>201.708</ele>
        <time>2017-08-18T08:52:28Z</time>
      </trkpt>
      <trkpt lat="44.22807" lon="0.86978">
        <ele>202.778</ele>
        <time>2017-08-18T08:52:38Z</time>
      </trkpt>
      <trkpt lat="44.22809" lon="0.87021">
        <ele>203.428</ele>
        <time>2017-08-18T08:52:47Z</time>
      </trkpt>
      <trkpt lat="44.2281" lon="0.87069">
        <ele>204.999</ele>
        <time>2017-08-18T08:52:57Z</time>
      </trkpt>
      <trkpt lat="44.22814" lon="0.87121">
        <ele>206.319</ele>
        <time>2017-08-18T08:53:08Z</time>
      </trkpt>
      <trkpt lat="44.22822" lon="0.87179">
        <ele>207.089</ele>
        <time>2017-08-18T08:53:20Z</time>
      </trkpt>
      <trkpt lat="44.22831" lon="0.87237">
        <ele>206.979</ele>
        <time>2017-08-18T08:53:31Z</time>
      </trkpt>
      <trkpt lat="44.22843" lon="0.87314">
        <ele>206.709</ele>
        <time>2017-08-18T08:53:44Z</time>
      </trkpt>
      <trkpt lat="44.22851" lon="0.87369">
        <ele>207.069</ele>
        <time>2017-08-18T08:53:53Z</time>
      </trkpt>
      <trkpt lat="44.22864" lon="0.87446">
        <ele>207.599</ele>
        <time>2017-08-18T08:54:06Z</time>
      </trkpt>
      <trkpt lat="44.22879" lon="0.87534">
        <ele>208.67</ele>
        <time>2017-08-18T08:54:21Z</time>
      </trkpt>
      <trkpt lat="44.22887" lon="0.87595">
        <ele>209.75</ele>
        <time>2017-08-18T08:54:32Z</time>
      </trkpt>
      <trkpt lat="44.22889" lon="0.87646">
        <ele>210.42</ele>
        <time>2017-08-18T08:54:41Z</time>
      </trkpt>
      <trkpt lat="44.22887" lon="0.87691">
        <ele>211.751</ele>
        <time>2017-08-18T08:54:49Z</time>
      </trkpt>
      <trkpt lat="44.2289" lon="0.87759">
        <ele>215.021</ele>
        <time>2017-08-18T08:55:01Z</time>
      </trkpt>
      <trkpt lat="44.22894" lon="0.87795">
        <ele>214.8</ele>
        <time>2017-08-18T08:55:08Z</time>
      </trkpt>
      <trkpt lat="44.22895" lon="0.87842">
        <ele>214.6</ele>
        <time>2017-08-18T08:55:18Z</time>
      </trkpt>
      <trkpt lat="44.22894" lon="0.87896">
        <ele>213.51</ele>
        <time>2017-08-18T08:55:28Z</time>
      </trkpt>
      <trkpt lat="44.22891" lon="0.87966">
        <ele>212.88</ele>
        <time>2017-08-18T08:55:40Z</time>
      </trkpt>
      <trkpt lat="44.22888" lon="0.88026">
        <ele>212.5</ele>
        <time>2017-08-18T08:55:50Z</time>
      </trkpt>
      <trkpt lat="44.22887" lon="0.88066">
        <ele>212.721</ele>
        <time>2017-08-18T08:55:57Z</time>
      </trkpt>
      <trkpt lat="44.22884" lon="0.88113">
        <ele>213.201</ele>
        <time>2017-08-18T08:56:05Z</time>
      </trkpt>
      <trkpt lat="44.22879" lon="0.88167">
        <ele>214.442</ele>
        <time>2017-08-18T08:56:15Z</time>
      </trkpt>
      <trkpt lat="44.22873" lon="0.88232">
        <ele>215.791</ele>
        <time>2017-08-18T08:56:27Z</time>
      </trkpt>
      <trkpt lat="44.22869" lon="0.8827">
        <ele>216.801</ele>
        <time>2017-08-18T08:56:35Z</time>
      </trkpt>
      <trkpt lat="44.22872" lon="0.88301">
        <ele>217.101</ele>
        <time>2017-08-18T08:56:42Z</time>
      </trkpt>
      <trkpt lat="44.22882" lon="0.88302">
        <ele>216.611</ele>
        <time>2017-08-18T08:56:47Z</time>
      </trkpt>
      <trkpt lat="44.22883" lon="0.88302">
        <ele>216.291</ele>
        <time>2017-08-18T08:56:52Z</time>
      </trkpt>
      <trkpt lat="44.22883" lon="0.883">
        <ele>217.271</ele>
        <time>2017-08-18T08:58:37Z</time>
      </trkpt>
      <trkpt lat="44.22895" lon="0.88293">
        <ele>216.701</ele>
        <time>2017-08-18T08:58:44Z</time>
      </trkpt>
      <trkpt lat="44.22916" lon="0.88283">
        <ele>215.75</ele>
        <time>2017-08-18T08:58:50Z</time>
      </trkpt>
      <trkpt lat="44.2295" lon="0.88268">
        <ele>213.34</ele>
        <time>2017-08-18T08:58:57Z</time>
      </trkpt>
      <trkpt lat="44.22992" lon="0.88259">
        <ele>210.75</ele>
        <time>2017-08-18T08:59:04Z</time>
      </trkpt>
      <trkpt lat="44.23073" lon="0.88257">
        <ele>209.242</ele>
        <time>2017-08-18T08:59:17Z</time>
      </trkpt>
      <trkpt lat="44.23127" lon="0.88256">
        <ele>208.812</ele>
        <time>2017-08-18T08:59:26Z</time>
      </trkpt>
      <trkpt lat="44.23172" lon="0.8825">
        <ele>208.972</ele>
        <time>2017-08-18T08:59:35Z</time>
      </trkpt>
      <trkpt lat="44.23223" lon="0.8824">
        <ele>209.232</ele>
        <time>2017-08-18T08:59:46Z</time>
      </trkpt>
      <trkpt lat="44.23268" lon="0.88236">
        <ele>208.932</ele>
        <time>2017-08-18T08:59:56Z</time>
      </trkpt>
      <trkpt lat="44.2329" lon="0.88246">
        <ele>208.862</ele>
        <time>2017-08-18T09:00:01Z</time>
      </trkpt>
      <trkpt lat="44.23318" lon="0.88279">
        <ele>209.102</ele>
        <time>2017-08-18T09:00:09Z</time>
      </trkpt>
      <trkpt lat="44.23339" lon="0.8832">
        <ele>209.443</ele>
        <time>2017-08-18T09:00:17Z</time>
      </trkpt>
      <trkpt lat="44.23364" lon="0.88378">
        <ele>210.154</ele>
        <time>2017-08-18T09:00:28Z</time>
      </trkpt>
      <trkpt lat="44.23389" lon="0.8843">
        <ele>211.193</ele>
        <time>2017-08-18T09:00:38Z</time>
      </trkpt>
      <trkpt lat="44.23394" lon="0.8844">
        <ele>210.953</ele>
        <time>2017-08-18T09:00:40Z</time>
      </trkpt>
      <trkpt lat="44.23417" lon="0.88483">
        <ele>210.733</ele>
        <time>2017-08-18T09:00:48Z</time>
      </trkpt>
      <trkpt lat="44.23438" lon="0.88544">
        <ele>210.904</ele>
        <time>2017-08-18T09:00:58Z</time>
      </trkpt>
      <trkpt lat="44.23459" lon="0.886">
        <ele>211.614</ele>
        <time>2017-08-18T09:01:08Z</time>
      </trkpt>
      <trkpt lat="44.23488" lon="0.88649">
        <ele>212.384</ele>
        <time>2017-08-18T09:01:18Z</time>
      </trkpt>
      <trkpt lat="44.23516" lon="0.88699">
        <ele>210.563</ele>
        <time>2017-08-18T09:01:27Z</time>
      </trkpt>
      <trkpt lat="44.2354" lon="0.88745">
        <ele>207.932</ele>
        <time>2017-08-18T09:01:33Z</time>
      </trkpt>
      <trkpt lat="44.23568" lon="0.8879">
        <ele>204.52</ele>
        <time>2017-08-18T09:01:38Z</time>
      </trkpt>
      <trkpt lat="44.23604" lon="0.88841">
        <ele>200.98</ele>
        <time>2017-08-18T09:01:43Z</time>
      </trkpt>
      <trkpt lat="44.23647" lon="0.88899">
        <ele>199.314</ele>
        <time>2017-08-18T09:01:49Z</time>
      </trkpt>
      <trkpt lat="44.23667" lon="0.8893">
        <ele>199.716</ele>
        <time>2017-08-18T09:01:53Z</time>
      </trkpt>
      <trkpt lat="44.2368" lon="0.88949">
        <ele>200.326</ele>
        <time>2017-08-18T09:01:57Z</time>
      </trkpt>
      <trkpt lat="44.2369" lon="0.88966">
        <ele>201.115</ele>
        <time>2017-08-18T09:02:03Z</time>
      </trkpt>
      <trkpt lat="44.23707" lon="0.8899">
        <ele>201.574</ele>
        <time>2017-08-18T09:02:11Z</time>
      </trkpt>
      <trkpt lat="44.23728" lon="0.89019">
        <ele>200.175</ele>
        <time>2017-08-18T09:02:18Z</time>
      </trkpt>
      <trkpt lat="44.23766" lon="0.89068">
        <ele>199.546</ele>
        <time>2017-08-18T09:02:28Z</time>
      </trkpt>
      <trkpt lat="44.23808" lon="0.89119">
        <ele>200.537</ele>
        <time>2017-08-18T09:02:40Z</time>
      </trkpt>
      <trkpt lat="44.23851" lon="0.8917">
        <ele>202.297</ele>
        <time>2017-08-18T09:02:52Z</time>
      </trkpt>
      <trkpt lat="44.23881" lon="0.89204">
        <ele>204.648</ele>
        <time>2017-08-18T09:03:02Z</time>
      </trkpt>
      <trkpt lat="44.23906" lon="0.8923">
        <ele>207.468</ele>
        <time>2017-08-18T09:03:12Z</time>
      </trkpt>
      <trkpt lat="44.23933" lon="0.89256">
        <ele>210.889</ele>
        <time>2017-08-18T09:03:24Z</time>
      </trkpt>
      <trkpt lat="44.23959" lon="0.89281">
        <ele>213.818</ele>
        <time>2017-08-18T09:03:36Z</time>
      </trkpt>
      <trkpt lat="44.23979" lon="0.89302">
        <ele>215.328</ele>
        <time>2017-08-18T09:03:46Z</time>
      </trkpt>
      <trkpt lat="44.23985" lon="0.89313">
        <ele>215.537</ele>
        <time>2017-08-18T09:03:54Z</time>
      </trkpt>
      <trkpt lat="44.23993" lon="0.89325">
        <ele>215.347</ele>
        <time>2017-08-18T09:04:02Z</time>
      </trkpt>
      <trkpt lat="44.24008" lon="0.89351">
        <ele>215.067</ele>
        <time>2017-08-18T09:04:14Z</time>
      </trkpt>
      <trkpt lat="44.24025" lon="0.89373">
        <ele>214.626</ele>
        <time>2017-08-18T09:04:24Z</time>
      </trkpt>
      <trkpt lat="44.24044" lon="0.8939">
        <ele>213.937</ele>
        <time>2017-08-18T09:04:31Z</time>
      </trkpt>
      <trkpt lat="44.24074" lon="0.89411">
        <ele>213.298</ele>
        <time>2017-08-18T09:04:39Z</time>
      </trkpt>
      <trkpt lat="44.2411" lon="0.89425">
        <ele>213.148</ele>
        <time>2017-08-18T09:04:47Z</time>
      </trkpt>
      <trkpt lat="44.24147" lon="0.89428">
        <ele>214.219</ele>
        <time>2017-08-18T09:04:55Z</time>
      </trkpt>
      <trkpt lat="44.24182" lon="0.89436">
        <ele>215.149</ele>
        <time>2017-08-18T09:05:03Z</time>
      </trkpt>
      <trkpt lat="44.24218" lon="0.89458">
        <ele>216.339</ele>
        <time>2017-08-18T09:05:12Z</time>
      </trkpt>
      <trkpt lat="44.24238" lon="0.89483">
        <ele>217.6</ele>
        <time>2017-08-18T09:05:19Z</time>
      </trkpt>
      <trkpt lat="44.24249" lon="0.89513">
        <ele>218.06</ele>
        <time>2017-08-18T09:05:26Z</time>
      </trkpt>
      <trkpt lat="44.24258" lon="0.89566">
        <ele>218.71</ele>
        <time>2017-08-18T09:05:37Z</time>
      </trkpt>
      <trkpt lat="44.24269" lon="0.89616">
        <ele>219.28</ele>
        <time>2017-08-18T09:05:48Z</time>
      </trkpt>
      <trkpt lat="44.24278" lon="0.89652">
        <ele>219.74</ele>
        <time>2017-08-18T09:05:56Z</time>
      </trkpt>
      <trkpt lat="44.24284" lon="0.89691">
        <ele>220.22</ele>
        <time>2017-08-18T09:06:04Z</time>
      </trkpt>
      <trkpt lat="44.24282" lon="0.89724">
        <ele>220.11</ele>
        <time>2017-08-18T09:06:11Z</time>
      </trkpt>
      <trkpt lat="44.24278" lon="0.89747">
        <ele>219.449</ele>
        <time>2017-08-18T09:06:17Z</time>
      </trkpt>
      <trkpt lat="44.24274" lon="0.89766">
        <ele>218.79</ele>
        <time>2017-08-18T09:06:22Z</time>
      </trkpt>
      <trkpt lat="44.2427" lon="0.89798">
        <ele>217.589</ele>
        <time>2017-08-18T09:06:30Z</time>
      </trkpt>
      <trkpt lat="44.2427" lon="0.89842">
        <ele>217.279</ele>
        <time>2017-08-18T09:06:39Z</time>
      </trkpt>
      <trkpt lat="44.24276" lon="0.89893">
        <ele>216.449</ele>
        <time>2017-08-18T09:06:47Z</time>
      </trkpt>
      <trkpt lat="44.2429" lon="0.89961">
        <ele>215.409</ele>
        <time>2017-08-18T09:06:56Z</time>
      </trkpt>
      <trkpt lat="44.2431" lon="0.90038">
        <ele>214.819</ele>
        <time>2017-08-18T09:07:05Z</time>
      </trkpt>
      <trkpt lat="44.24343" lon="0.90136">
        <ele>213.78</ele>
        <time>2017-08-18T09:07:17Z</time>
      </trkpt>
      <trkpt lat="44.24358" lon="0.90197">
        <ele>213.712</ele>
        <time>2017-08-18T09:07:25Z</time>
      </trkpt>
      <trkpt lat="44.24374" lon="0.9027">
        <ele>215.283</ele>
        <time>2017-08-18T09:07:36Z</time>
      </trkpt>
      <trkpt lat="44.2438" lon="0.90315">
        <ele>216.672</ele>
        <time>2017-08-18T09:07:44Z</time>
      </trkpt>
      <trkpt lat="44.24383" lon="0.90371">
        <ele>217.691</ele>
        <time>2017-08-18T09:07:55Z</time>
      </trkpt>
      <trkpt lat="44.24385" lon="0.90409">
        <ele>217.861</ele>
        <time>2017-08-18T09:08:04Z</time>
      </trkpt>
      <trkpt lat="44.24389" lon="0.90449">
        <ele>217.221</ele>
        <time>2017-08-18T09:08:13Z</time>
      </trkpt>
      <trkpt lat="44.24397" lon="0.90485">
        <ele>216.02</ele>
        <time>2017-08-18T09:08:19Z</time>
      </trkpt>
      <trkpt lat="44.24408" lon="0.90533">
        <ele>214.251</ele>
        <time>2017-08-18T09:08:25Z</time>
      </trkpt>
      <trkpt lat="44.24427" lon="0.90614">
        <ele>212.111</ele>
        <time>2017-08-18T09:08:34Z</time>
      </trkpt>
      <trkpt lat="44.24433" lon="0.90653">
        <ele>211.081</ele>
        <time>2017-08-18T09:08:38Z</time>
      </trkpt>
      <trkpt lat="44.24451" lon="0.90697">
        <ele>209.4</ele>
        <time>2017-08-18T09:08:43Z</time>
      </trkpt>
      <trkpt lat="44.24499" lon="0.90765">
        <ele>206.561</ele>
        <time>2017-08-18T09:08:52Z</time>
      </trkpt>
      <trkpt lat="44.24537" lon="0.90805">
        <ele>205.742</ele>
        <time>2017-08-18T09:08:59Z</time>
      </trkpt>
      <trkpt lat="44.24574" lon="0.9084">
        <ele>205.732</ele>
        <time>2017-08-18T09:09:07Z</time>
      </trkpt>
      <trkpt lat="44.24606" lon="0.90869">
        <ele>206.483</ele>
        <time>2017-08-18T09:09:15Z</time>
      </trkpt>
      <trkpt lat="44.24644" lon="0.90901">
        <ele>208.055</ele>
        <time>2017-08-18T09:09:26Z</time>
      </trkpt>
      <trkpt lat="44.24675" lon="0.90924">
        <ele>209.315</ele>
        <time>2017-08-18T09:09:36Z</time>
      </trkpt>
      <trkpt lat="44.24687" lon="0.90933">
        <ele>210.295</ele>
        <time>2017-08-18T09:09:40Z</time>
      </trkpt>
      <trkpt lat="44.24711" lon="0.90949">
        <ele>211.965</ele>
        <time>2017-08-18T09:09:46Z</time>
      </trkpt>
      <trkpt lat="44.24723" lon="0.90952">
        <ele>212.834</ele>
        <time>2017-08-18T09:09:51Z</time>
      </trkpt>
      <trkpt lat="44.24726" lon="0.90952">
        <ele>212.994</ele>
        <time>2017-08-18T09:09:53Z</time>
      </trkpt>
      <trkpt lat="44.24739" lon="0.90954">
        <ele>213.384</ele>
        <time>2017-08-18T09:10:01Z</time>
      </trkpt>
      <trkpt lat="44.24753" lon="0.90956">
        <ele>213.264</ele>
        <time>2017-08-18T09:10:06Z</time>
      </trkpt>
      <trkpt lat="44.24783" lon="0.90953">
        <ele>213.204</ele>
        <time>2017-08-18T09:10:13Z</time>
      </trkpt>
      <trkpt lat="44.24815" lon="0.90939">
        <ele>213.334</ele>
        <time>2017-08-18T09:10:21Z</time>
      </trkpt>
      <trkpt lat="44.24849" lon="0.90922">
        <ele>212.945</ele>
        <time>2017-08-18T09:10:31Z</time>
      </trkpt>
      <trkpt lat="44.24878" lon="0.90908">
        <ele>213.626</ele>
        <time>2017-08-18T09:10:40Z</time>
      </trkpt>
      <trkpt lat="44.24904" lon="0.90898">
        <ele>214.025</ele>
        <time>2017-08-18T09:10:48Z</time>
      </trkpt>
      <trkpt lat="44.2493" lon="0.90888">
        <ele>214.826</ele>
        <time>2017-08-18T09:10:57Z</time>
      </trkpt>
      <trkpt lat="44.24958" lon="0.90882">
        <ele>216.006</ele>
        <time>2017-08-18T09:11:06Z</time>
      </trkpt>
      <trkpt lat="44.24975" lon="0.9088">
        <ele>216.956</ele>
        <time>2017-08-18T09:11:12Z</time>
      </trkpt>
      <trkpt lat="44.25004" lon="0.90884">
        <ele>218.186</ele>
        <time>2017-08-18T09:11:22Z</time>
      </trkpt>
      <trkpt lat="44.25028" lon="0.90892">
        <ele>218.566</ele>
        <time>2017-08-18T09:11:30Z</time>
      </trkpt>
      <trkpt lat="44.25062" lon="0.90901">
        <ele>219.416</ele>
        <time>2017-08-18T09:11:41Z</time>
      </trkpt>
      <trkpt lat="44.25077" lon="0.90904">
        <ele>219.676</ele>
        <time>2017-08-18T09:11:47Z</time>
      </trkpt>
      <trkpt lat="44.25085" lon="0.90905">
        <ele>220.006</ele>
        <time>2017-08-18T09:11:53Z</time>
      </trkpt>
      <trkpt lat="44.25096" lon="0.90906">
        <ele>220.416</ele>
        <time>2017-08-18T09:12:01Z</time>
      </trkpt>
      <trkpt lat="44.25115" lon="0.90907">
        <ele>220.756</ele>
        <time>2017-08-18T09:12:10Z</time>
      </trkpt>
      <trkpt lat="44.25138" lon="0.90906">
        <ele>221.306</ele>
        <time>2017-08-18T09:12:20Z</time>
      </trkpt>
      <trkpt lat="44.25157" lon="0.90907">
        <ele>221.426</ele>
        <time>2017-08-18T09:12:26Z</time>
      </trkpt>
      <trkpt lat="44.25183" lon="0.90909">
        <ele>221.096</ele>
        <time>2017-08-18T09:12:33Z</time>
      </trkpt>
      <trkpt lat="44.25219" lon="0.90922">
        <ele>219.475</ele>
        <time>2017-08-18T09:12:41Z</time>
      </trkpt>
      <trkpt lat="44.25254" lon="0.90946">
        <ele>218.585</ele>
        <time>2017-08-18T09:12:49Z</time>
      </trkpt>
      <trkpt lat="44.25295" lon="0.90984">
        <ele>217.105</ele>
        <time>2017-08-18T09:12:58Z</time>
      </trkpt>
      <trkpt lat="44.25337" lon="0.91032">
        <ele>214.376</ele>
        <time>2017-08-18T09:13:08Z</time>
      </trkpt>
      <trkpt lat="44.25357" lon="0.91054">
        <ele>214.086</ele>
        <time>2017-08-18T09:13:14Z</time>
      </trkpt>
      <trkpt lat="44.25383" lon="0.91081">
        <ele>214.107</ele>
        <time>2017-08-18T09:13:23Z</time>
      </trkpt>
      <trkpt lat="44.25413" lon="0.91111">
        <ele>215.038</ele>
        <time>2017-08-18T09:13:34Z</time>
      </trkpt>
      <trkpt lat="44.25431" lon="0.91128">
        <ele>215.658</ele>
        <time>2017-08-18T09:13:41Z</time>
      </trkpt>
      <trkpt lat="44.25446" lon="0.91143">
        <ele>215.798</ele>
        <time>2017-08-18T09:13:48Z</time>
      </trkpt>
      <trkpt lat="44.25465" lon="0.91161">
        <ele>214.917</ele>
        <time>2017-08-18T09:13:55Z</time>
      </trkpt>
      <trkpt lat="44.25489" lon="0.91185">
        <ele>213.276</ele>
        <time>2017-08-18T09:14:01Z</time>
      </trkpt>
      <trkpt lat="44.2551" lon="0.91216">
        <ele>211.015</ele>
        <time>2017-08-18T09:14:06Z</time>
      </trkpt>
      <trkpt lat="44.25531" lon="0.91262">
        <ele>209.467</ele>
        <time>2017-08-18T09:14:12Z</time>
      </trkpt>
      <trkpt lat="44.25558" lon="0.9133">
        <ele>208.668</ele>
        <time>2017-08-18T09:14:21Z</time>
      </trkpt>
      <trkpt lat="44.25579" lon="0.91382">
        <ele>209.59</ele>
        <time>2017-08-18T09:14:29Z</time>
      </trkpt>
      <trkpt lat="44.25591" lon="0.91417">
        <ele>210.88</ele>
        <time>2017-08-18T09:14:36Z</time>
      </trkpt>
      <trkpt lat="44.25595" lon="0.91443">
        <ele>211.91</ele>
        <time>2017-08-18T09:14:42Z</time>
      </trkpt>
      <trkpt lat="44.25589" lon="0.91466">
        <ele>213.24</ele>
        <time>2017-08-18T09:14:48Z</time>
      </trkpt>
      <trkpt lat="44.25574" lon="0.91483">
        <ele>214.43</ele>
        <time>2017-08-18T09:14:54Z</time>
      </trkpt>
      <trkpt lat="44.25544" lon="0.91501">
        <ele>215.199</ele>
        <time>2017-08-18T09:15:04Z</time>
      </trkpt>
      <trkpt lat="44.25517" lon="0.91517">
        <ele>215.449</ele>
        <time>2017-08-18T09:15:11Z</time>
      </trkpt>
      <trkpt lat="44.25509" lon="0.91524">
        <ele>215.469</ele>
        <time>2017-08-18T09:15:13Z</time>
      </trkpt>
      <trkpt lat="44.25493" lon="0.91557">
        <ele>215.509</ele>
        <time>2017-08-18T09:15:19Z</time>
      </trkpt>
      <trkpt lat="44.25477" lon="0.91631">
        <ele>216.309</ele>
        <time>2017-08-18T09:15:31Z</time>
      </trkpt>
      <trkpt lat="44.2547" lon="0.91681">
        <ele>217.44</ele>
        <time>2017-08-18T09:15:40Z</time>
      </trkpt>
      <trkpt lat="44.25479" lon="0.9171">
        <ele>218.33</ele>
        <time>2017-08-18T09:15:46Z</time>
      </trkpt>
      <trkpt lat="44.25495" lon="0.91726">
        <ele>219.4</ele>
        <time>2017-08-18T09:15:52Z</time>
      </trkpt>
      <trkpt lat="44.25525" lon="0.91752">
        <ele>219.299</ele>
        <time>2017-08-18T09:16:02Z</time>
      </trkpt>
      <trkpt lat="44.25552" lon="0.91779">
        <ele>218.619</ele>
        <time>2017-08-18T09:16:10Z</time>
      </trkpt>
      <trkpt lat="44.25594" lon="0.91821">
        <ele>218.299</ele>
        <time>2017-08-18T09:16:22Z</time>
      </trkpt>
      <trkpt lat="44.25623" lon="0.91855">
        <ele>217.99</ele>
        <time>2017-08-18T09:16:31Z</time>
      </trkpt>
      <trkpt lat="44.2563" lon="0.91889">
        <ele>217.66</ele>
        <time>2017-08-18T09:16:37Z</time>
      </trkpt>
      <trkpt lat="44.25629" lon="0.91895">
        <ele>217.66</ele>
        <time>2017-08-18T09:16:38Z</time>
      </trkpt>
      <trkpt lat="44.25626" lon="0.91913">
        <ele>217.67</ele>
        <time>2017-08-18T09:16:41Z</time>
      </trkpt>
      <trkpt lat="44.25629" lon="0.91944">
        <ele>217.83</ele>
        <time>2017-08-18T09:16:46Z</time>
      </trkpt>
      <trkpt lat="44.25641" lon="0.91959">
        <ele>218.02</ele>
        <time>2017-08-18T09:16:50Z</time>
      </trkpt>
      <trkpt lat="44.25645" lon="0.91962">
        <ele>218.08</ele>
        <time>2017-08-18T09:16:51Z</time>
      </trkpt>
      <trkpt lat="44.25691" lon="0.9198">
        <ele>218.891</ele>
        <time>2017-08-18T09:17:02Z</time>
      </trkpt>
      <trkpt lat="44.2573" lon="0.91991">
        <ele>219.47</ele>
        <time>2017-08-18T09:17:12Z</time>
      </trkpt>
      <trkpt lat="44.25753" lon="0.9201">
        <ele>219.35</ele>
        <time>2017-08-18T09:17:19Z</time>
      </trkpt>
      <trkpt lat="44.25771" lon="0.92038">
        <ele>219.08</ele>
        <time>2017-08-18T09:17:26Z</time>
      </trkpt>
      <trkpt lat="44.25784" lon="0.92079">
        <ele>219.131</ele>
        <time>2017-08-18T09:17:34Z</time>
      </trkpt>
      <trkpt lat="44.25793" lon="0.92123">
        <ele>219.452</ele>
        <time>2017-08-18T09:17:42Z</time>
      </trkpt>
      <trkpt lat="44.25806" lon="0.92195">
        <ele>220.302</ele>
        <time>2017-08-18T09:17:55Z</time>
      </trkpt>
      <trkpt lat="44.25812" lon="0.92233">
        <ele>220.912</ele>
        <time>2017-08-18T09:18:02Z</time>
      </trkpt>
      <trkpt lat="44.2582" lon="0.92257">
        <ele>221.092</ele>
        <time>2017-08-18T09:18:07Z</time>
      </trkpt>
      <trkpt lat="44.25847" lon="0.92283">
        <ele>220.991</ele>
        <time>2017-08-18T09:18:16Z</time>
      </trkpt>
      <trkpt lat="44.25881" lon="0.92314">
        <ele>220.691</ele>
        <time>2017-08-18T09:18:26Z</time>
      </trkpt>
      <trkpt lat="44.25907" lon="0.92343">
        <ele>219.932</ele>
        <time>2017-08-18T09:18:33Z</time>
      </trkpt>
      <trkpt lat="44.25925" lon="0.92377">
        <ele>219.182</ele>
        <time>2017-08-18T09:18:39Z</time>
      </trkpt>
      <trkpt lat="44.25942" lon="0.92433">
        <ele>218.542</ele>
        <time>2017-08-18T09:18:48Z</time>
      </trkpt>
      <trkpt lat="44.25961" lon="0.92495">
        <ele>218.322</ele>
        <time>2017-08-18T09:18:59Z</time>
      </trkpt>
      <trkpt lat="44.25971" lon="0.92522">
        <ele>218.293</ele>
        <time>2017-08-18T09:19:04Z</time>
      </trkpt>
      <trkpt lat="44.25991" lon="0.92588">
        <ele>218.202</ele>
        <time>2017-08-18T09:19:16Z</time>
      </trkpt>
      <trkpt lat="44.26008" lon="0.92634">
        <ele>217.763</ele>
        <time>2017-08-18T09:19:24Z</time>
      </trkpt>
      <trkpt lat="44.26012" lon="0.92672">
        <ele>218.134</ele>
        <time>2017-08-18T09:19:30Z</time>
      </trkpt>
      <trkpt lat="44.26007" lon="0.92718">
        <ele>218.444</ele>
        <time>2017-08-18T09:19:37Z</time>
      </trkpt>
      <trkpt lat="44.26003" lon="0.92749">
        <ele>219.234</ele>
        <time>2017-08-18T09:19:43Z</time>
      </trkpt>
      <trkpt lat="44.26" lon="0.92758">
        <ele>219.344</ele>
        <time>2017-08-18T09:19:46Z</time>
      </trkpt>
      <trkpt lat="44.26003" lon="0.92761">
        <ele>219.885</ele>
        <time>2017-08-18T09:19:50Z</time>
      </trkpt>
      <trkpt lat="44.26009" lon="0.92756">
        <ele>221.804</ele>
        <time>2017-08-18T09:21:47Z</time>
      </trkpt>
      <trkpt lat="44.26023" lon="0.92754">
        <ele>221.684</ele>
        <time>2017-08-18T09:21:52Z</time>
      </trkpt>
      <trkpt lat="44.26057" lon="0.92749">
        <ele>221.724</ele>
        <time>2017-08-18T09:22:02Z</time>
      </trkpt>
      <trkpt lat="44.26093" lon="0.92743">
        <ele>221.914</ele>
        <time>2017-08-18T09:22:12Z</time>
      </trkpt>
      <trkpt lat="44.26131" lon="0.92739">
        <ele>222.094</ele>
        <time>2017-08-18T09:22:22Z</time>
      </trkpt>
      <trkpt lat="44.26172" lon="0.92738">
        <ele>222.104</ele>
        <time>2017-08-18T09:22:32Z</time>
      </trkpt>
      <trkpt lat="44.26215" lon="0.92739">
        <ele>221.084</ele>
        <time>2017-08-18T09:22:41Z</time>
      </trkpt>
      <trkpt lat="44.26248" lon="0.92747">
        <ele>219.904</ele>
        <time>2017-08-18T09:22:48Z</time>
      </trkpt>
      <trkpt lat="44.26287" lon="0.92758">
        <ele>220.045</ele>
        <time>2017-08-18T09:22:56Z</time>
      </trkpt>
      <trkpt lat="44.26326" lon="0.92767">
        <ele>221.385</ele>
        <time>2017-08-18T09:23:04Z</time>
      </trkpt>
      <trkpt lat="44.26372" lon="0.9278">
        <ele>222.305</ele>
        <time>2017-08-18T09:23:14Z</time>
      </trkpt>
      <trkpt lat="44.26416" lon="0.92791">
        <ele>222.955</ele>
        <time>2017-08-18T09:23:24Z</time>
      </trkpt>
      <trkpt lat="44.26457" lon="0.92802">
        <ele>222.975</ele>
        <time>2017-08-18T09:23:34Z</time>
      </trkpt>
      <trkpt lat="44.26501" lon="0.92813">
        <ele>222.435</ele>
        <time>2017-08-18T09:23:44Z</time>
      </trkpt>
      <trkpt lat="44.26531" lon="0.92813">
        <ele>222.556</ele>
        <time>2017-08-18T09:23:51Z</time>
      </trkpt>
      <trkpt lat="44.26556" lon="0.92801">
        <ele>222.806</ele>
        <time>2017-08-18T09:23:58Z</time>
      </trkpt>
      <trkpt lat="44.26587" lon="0.92779">
        <ele>223.476</ele>
        <time>2017-08-18T09:24:07Z</time>
      </trkpt>
      <trkpt lat="44.26614" lon="0.92761">
        <ele>224.067</ele>
        <time>2017-08-18T09:24:15Z</time>
      </trkpt>
      <trkpt lat="44.26619" lon="0.92771">
        <ele>224.476</ele>
        <time>2017-08-18T09:24:19Z</time>
      </trkpt>
      <trkpt lat="44.26618" lon="0.92774">
        <ele>224.446</ele>
        <time>2017-08-18T09:24:20Z</time>
      </trkpt>
      <trkpt lat="44.26608" lon="0.92811">
        <ele>224.136</ele>
        <time>2017-08-18T09:24:28Z</time>
      </trkpt>
      <trkpt lat="44.26592" lon="0.92871">
        <ele>224.557</ele>
        <time>2017-08-18T09:24:38Z</time>
      </trkpt>
      <trkpt lat="44.2657" lon="0.92959">
        <ele>225.516</ele>
        <time>2017-08-18T09:24:52Z</time>
      </trkpt>
      <trkpt lat="44.2655" lon="0.93041">
        <ele>225.686</ele>
        <time>2017-08-18T09:25:04Z</time>
      </trkpt>
      <trkpt lat="44.26531" lon="0.9312">
        <ele>225.616</ele>
        <time>2017-08-18T09:25:15Z</time>
      </trkpt>
      <trkpt lat="44.26506" lon="0.93227">
        <ele>225.326</ele>
        <time>2017-08-18T09:25:29Z</time>
      </trkpt>
      <trkpt lat="44.26497" lon="0.93277">
        <ele>225.037</ele>
        <time>2017-08-18T09:25:35Z</time>
      </trkpt>
      <trkpt lat="44.26483" lon="0.93359">
        <ele>225.197</ele>
        <time>2017-08-18T09:25:45Z</time>
      </trkpt>
      <trkpt lat="44.26468" lon="0.93445">
        <ele>225.987</ele>
        <time>2017-08-18T09:25:57Z</time>
      </trkpt>
      <trkpt lat="44.26454" lon="0.93528">
        <ele>227.057</ele>
        <time>2017-08-18T09:26:09Z</time>
      </trkpt>
      <trkpt lat="44.26444" lon="0.93586">
        <ele>227.837</ele>
        <time>2017-08-18T09:26:18Z</time>
      </trkpt>
      <trkpt lat="44.2643" lon="0.93661">
        <ele>228.377</ele>
        <time>2017-08-18T09:26:30Z</time>
      </trkpt>
      <trkpt lat="44.2641" lon="0.93724">
        <ele>228.127</ele>
        <time>2017-08-18T09:26:40Z</time>
      </trkpt>
      <trkpt lat="44.26382" lon="0.93781">
        <ele>228.638</ele>
        <time>2017-08-18T09:26:50Z</time>
      </trkpt>
      <trkpt lat="44.26344" lon="0.93843">
        <ele>228.837</ele>
        <time>2017-08-18T09:27:01Z</time>
      </trkpt>
      <trkpt lat="44.26309" lon="0.93884">
        <ele>228.427</ele>
        <time>2017-08-18T09:27:09Z</time>
      </trkpt>
      <trkpt lat="44.26276" lon="0.93907">
        <ele>227.776</ele>
        <time>2017-08-18T09:27:15Z</time>
      </trkpt>
      <trkpt lat="44.26217" lon="0.93936">
        <ele>227.117</ele>
        <time>2017-08-18T09:27:25Z</time>
      </trkpt>
      <trkpt lat="44.26154" lon="0.93964">
        <ele>226.847</ele>
        <time>2017-08-18T09:27:36Z</time>
      </trkpt>
      <trkpt lat="44.26094" lon="0.93991">
        <ele>227.087</ele>
        <time>2017-08-18T09:27:47Z</time>
      </trkpt>
      <trkpt lat="44.26025" lon="0.94025">
        <ele>227.767</ele>
        <time>2017-08-18T09:28:00Z</time>
      </trkpt>
      <trkpt lat="44.25999" lon="0.94054">
        <ele>228.187</ele>
        <time>2017-08-18T09:28:06Z</time>
      </trkpt>
      <trkpt lat="44.25976" lon="0.94097">
        <ele>228.677</ele>
        <time>2017-08-18T09:28:13Z</time>
      </trkpt>
      <trkpt lat="44.25952" lon="0.94159">
        <ele>229.007</ele>
        <time>2017-08-18T09:28:23Z</time>
      </trkpt>
      <trkpt lat="44.25923" lon="0.94232">
        <ele>229.057</ele>
        <time>2017-08-18T09:28:35Z</time>
      </trkpt>
      <trkpt lat="44.25904" lon="0.94287">
        <ele>230.286</ele>
        <time>2017-08-18T09:28:44Z</time>
      </trkpt>
      <trkpt lat="44.25887" lon="0.94355">
        <ele>230.265</ele>
        <time>2017-08-18T09:28:54Z</time>
      </trkpt>
      <trkpt lat="44.25873" lon="0.94442">
        <ele>228.965</ele>
        <time>2017-08-18T09:29:06Z</time>
      </trkpt>
      <trkpt lat="44.2586" lon="0.9452">
        <ele>227.405</ele>
        <time>2017-08-18T09:29:16Z</time>
      </trkpt>
      <trkpt lat="44.2584" lon="0.94636">
        <ele>226.575</ele>
        <time>2017-08-18T09:29:30Z</time>
      </trkpt>
      <trkpt lat="44.25827" lon="0.94711">
        <ele>225.936</ele>
        <time>2017-08-18T09:29:39Z</time>
      </trkpt>
      <trkpt lat="44.25813" lon="0.94792">
        <ele>224.976</ele>
        <time>2017-08-18T09:29:49Z</time>
      </trkpt>
      <trkpt lat="44.2581" lon="0.94801">
        <ele>224.596</ele>
        <time>2017-08-18T09:29:52Z</time>
      </trkpt>
      <trkpt lat="44.2581" lon="0.94802">
        <ele>224.696</ele>
        <time>2017-08-18T09:29:58Z</time>
      </trkpt>
      <trkpt lat="44.2581" lon="0.94806">
        <ele>224.527</ele>
        <time>2017-08-18T09:30:15Z</time>
      </trkpt>
      <trkpt lat="44.25815" lon="0.94821">
        <ele>223.816</ele>
        <time>2017-08-18T09:30:19Z</time>
      </trkpt>
      <trkpt lat="44.25837" lon="0.94855">
        <ele>222.556</ele>
        <time>2017-08-18T09:30:26Z</time>
      </trkpt>
      <trkpt lat="44.25857" lon="0.94899">
        <ele>221.336</ele>
        <time>2017-08-18T09:30:33Z</time>
      </trkpt>
      <trkpt lat="44.25883" lon="0.94974">
        <ele>220.547</ele>
        <time>2017-08-18T09:30:44Z</time>
      </trkpt>
      <trkpt lat="44.25909" lon="0.95047">
        <ele>221.437</ele>
        <time>2017-08-18T09:30:55Z</time>
      </trkpt>
      <trkpt lat="44.25926" lon="0.95097">
        <ele>221.877</ele>
        <time>2017-08-18T09:31:03Z</time>
      </trkpt>
      <trkpt lat="44.25954" lon="0.95179">
        <ele>221.557</ele>
        <time>2017-08-18T09:31:16Z</time>
      </trkpt>
      <trkpt lat="44.25977" lon="0.95245">
        <ele>221.547</ele>
        <time>2017-08-18T09:31:27Z</time>
      </trkpt>
      <trkpt lat="44.25997" lon="0.95302">
        <ele>220.847</ele>
        <time>2017-08-18T09:31:37Z</time>
      </trkpt>
      <trkpt lat="44.26003" lon="0.9532">
        <ele>219.452</ele>
        <time>2017-08-18T09:31:40Z</time>
      </trkpt>
      <trkpt lat="44.26024" lon="0.95367">
        <ele>215.876</ele>
        <time>2017-08-18T09:31:47Z</time>
      </trkpt>
      <trkpt lat="44.26052" lon="0.95415">
        <ele>213.686</ele>
        <time>2017-08-18T09:31:53Z</time>
      </trkpt>
      <trkpt lat="44.26098" lon="0.95483">
        <ele>211.006</ele>
        <time>2017-08-18T09:32:01Z</time>
      </trkpt>
      <trkpt lat="44.26141" lon="0.95535">
        <ele>209.628</ele>
        <time>2017-08-18T09:32:08Z</time>
      </trkpt>
      <trkpt lat="44.26174" lon="0.95568">
        <ele>210.53</ele>
        <time>2017-08-18T09:32:14Z</time>
      </trkpt>
      <trkpt lat="44.262" lon="0.95589">
        <ele>211.952</ele>
        <time>2017-08-18T09:32:20Z</time>
      </trkpt>
      <trkpt lat="44.26224" lon="0.9561">
        <ele>214.522</ele>
        <time>2017-08-18T09:32:28Z</time>
      </trkpt>
      <trkpt lat="44.2624" lon="0.95627">
        <ele>214.899</ele>
        <time>2017-08-18T09:32:36Z</time>
      </trkpt>
      <trkpt lat="44.26242" lon="0.95632">
        <ele>214.84</ele>
        <time>2017-08-18T09:32:42Z</time>
      </trkpt>
      <trkpt lat="44.26245" lon="0.95638">
        <ele>214.5</ele>
        <time>2017-08-18T09:32:49Z</time>
      </trkpt>
      <trkpt lat="44.2625" lon="0.9563">
        <ele>214.72</ele>
        <time>2017-08-18T09:32:53Z</time>
      </trkpt>
      <trkpt lat="44.26247" lon="0.95625">
        <ele>214.85</ele>
        <time>2017-08-18T09:32:56Z</time>
      </trkpt>
      <trkpt lat="44.26244" lon="0.95623">
        <ele>214.648</ele>
        <time>2017-08-18T09:33:01Z</time>
      </trkpt>
      <trkpt lat="44.26242" lon="0.95623">
        <ele>214.81</ele>
        <time>2017-08-18T09:33:13Z</time>
      </trkpt>
      <trkpt lat="44.26241" lon="0.95628">
        <ele>214.25</ele>
        <time>2017-08-18T09:33:18Z</time>
      </trkpt>
      <trkpt lat="44.26243" lon="0.95633">
        <ele>214.29</ele>
        <time>2017-08-18T09:33:23Z</time>
      </trkpt>
      <trkpt lat="44.26245" lon="0.95635">
        <ele>214.211</ele>
        <time>2017-08-18T09:33:28Z</time>
      </trkpt>
      <trkpt lat="44.26248" lon="0.95639">
        <ele>214.531</ele>
        <time>2017-08-18T09:33:33Z</time>
      </trkpt>
      <trkpt lat="44.26253" lon="0.95649">
        <ele>214.46</ele>
        <time>2017-08-18T09:33:40Z</time>
      </trkpt>
      <trkpt lat="44.26263" lon="0.95666">
        <ele>215.822</ele>
        <time>2017-08-18T09:33:46Z</time>
      </trkpt>
      <trkpt lat="44.26278" lon="0.95694">
        <ele>218.152</ele>
        <time>2017-08-18T09:33:55Z</time>
      </trkpt>
      <trkpt lat="44.26286" lon="0.95718">
        <ele>219.281</ele>
        <time>2017-08-18T09:34:02Z</time>
      </trkpt>
      <trkpt lat="44.2629" lon="0.95747">
        <ele>220.451</ele>
        <time>2017-08-18T09:34:10Z</time>
      </trkpt>
      <trkpt lat="44.26286" lon="0.95772">
        <ele>222.031</ele>
        <time>2017-08-18T09:34:17Z</time>
      </trkpt>
      <trkpt lat="44.26282" lon="0.95794">
        <ele>223.682</ele>
        <time>2017-08-18T09:34:23Z</time>
      </trkpt>
      <trkpt lat="44.26267" lon="0.95806">
        <ele>227.766</ele>
        <time>2017-08-18T09:34:30Z</time>
      </trkpt>
      <trkpt lat="44.26251" lon="0.95816">
        <ele>231.462</ele>
        <time>2017-08-18T09:34:36Z</time>
      </trkpt>
      <trkpt lat="44.26226" lon="0.95826">
        <ele>234.533</ele>
        <time>2017-08-18T09:34:44Z</time>
      </trkpt>
      <trkpt lat="44.26199" lon="0.95837">
        <ele>233.991</ele>
        <time>2017-08-18T09:34:52Z</time>
      </trkpt>
      <trkpt lat="44.26183" lon="0.9585">
        <ele>234.321</ele>
        <time>2017-08-18T09:34:57Z</time>
      </trkpt>
      <trkpt lat="44.26161" lon="0.95877">
        <ele>232.371</ele>
        <time>2017-08-18T09:35:04Z</time>
      </trkpt>
      <trkpt lat="44.26158" lon="0.9588">
        <ele>233.051</ele>
        <time>2017-08-18T09:35:05Z</time>
      </trkpt>
      <trkpt lat="44.2614" lon="0.95902">
        <ele>232.824</ele>
        <time>2017-08-18T09:35:11Z</time>
      </trkpt>
      <trkpt lat="44.26118" lon="0.95925">
        <ele>235.042</ele>
        <time>2017-08-18T09:35:18Z</time>
      </trkpt>
      <trkpt lat="44.26115" lon="0.95929">
        <ele>235.312</ele>
        <time>2017-08-18T09:35:19Z</time>
      </trkpt>
      <trkpt lat="44.2611" lon="0.95938">
        <ele>235.272</ele>
        <time>2017-08-18T09:35:21Z</time>
      </trkpt>
      <trkpt lat="44.26105" lon="0.95946">
        <ele>234.911</ele>
        <time>2017-08-18T09:35:23Z</time>
      </trkpt>
      <trkpt lat="44.2608" lon="0.95977">
        <ele>233.161</ele>
        <time>2017-08-18T09:35:31Z</time>
      </trkpt>
      <trkpt lat="44.26062" lon="0.95991">
        <ele>232.411</ele>
        <time>2017-08-18T09:35:37Z</time>
      </trkpt>
      <trkpt lat="44.26054" lon="0.95993">
        <ele>231.9</ele>
        <time>2017-08-18T09:35:41Z</time>
      </trkpt>
      <trkpt lat="44.26054" lon="0.95991">
        <ele>231.41</ele>
        <time>2017-08-18T09:35:49Z</time>
      </trkpt>
      <trkpt lat="44.26052" lon="0.95989">
        <ele>231.67</ele>
        <time>2017-08-18T09:35:55Z</time>
      </trkpt>
      <trkpt lat="44.26061" lon="0.95989">
        <ele>228.82</ele>
        <time>2017-08-18T09:42:07Z</time>
      </trkpt>
      <trkpt lat="44.26067" lon="0.95996">
        <ele>228.84</ele>
        <time>2017-08-18T09:42:12Z</time>
      </trkpt>
      <trkpt lat="44.26068" lon="0.95997">
        <ele>228.79</ele>
        <time>2017-08-18T09:42:17Z</time>
      </trkpt>
      <trkpt lat="44.26069" lon="0.95999">
        <ele>228.92</ele>
        <time>2017-08-18T09:42:32Z</time>
      </trkpt>
      <trkpt lat="44.26077" lon="0.95995">
        <ele>228.16</ele>
        <time>2017-08-18T09:42:36Z</time>
      </trkpt>
      <trkpt lat="44.26079" lon="0.95992">
        <ele>227.849</ele>
        <time>2017-08-18T09:42:37Z</time>
      </trkpt>
      <trkpt lat="44.26096" lon="0.95968">
        <ele>227.55</ele>
        <time>2017-08-18T09:42:43Z</time>
      </trkpt>
      <trkpt lat="44.2612" lon="0.95936">
        <ele>228.69</ele>
        <time>2017-08-18T09:42:51Z</time>
      </trkpt>
      <trkpt lat="44.26144" lon="0.95902">
        <ele>229.011</ele>
        <time>2017-08-18T09:43:00Z</time>
      </trkpt>
      <trkpt lat="44.26153" lon="0.9589">
        <ele>228.88</ele>
        <time>2017-08-18T09:43:03Z</time>
      </trkpt>
      <trkpt lat="44.26179" lon="0.95857">
        <ele>227.87</ele>
        <time>2017-08-18T09:43:11Z</time>
      </trkpt>
      <trkpt lat="44.26197" lon="0.9584">
        <ele>228.501</ele>
        <time>2017-08-18T09:43:16Z</time>
      </trkpt>
      <trkpt lat="44.26234" lon="0.95814">
        <ele>233.105</ele>
        <time>2017-08-18T09:43:26Z</time>
      </trkpt>
      <trkpt lat="44.26248" lon="0.95806">
        <ele>232.96</ele>
        <time>2017-08-18T09:43:31Z</time>
      </trkpt>
      <trkpt lat="44.26271" lon="0.95795">
        <ele>231.239</ele>
        <time>2017-08-18T09:43:39Z</time>
      </trkpt>
      <trkpt lat="44.26276" lon="0.95794">
        <ele>230.799</ele>
        <time>2017-08-18T09:43:40Z</time>
      </trkpt>
      <trkpt lat="44.26287" lon="0.95777">
        <ele>228.558</ele>
        <time>2017-08-18T09:43:44Z</time>
      </trkpt>
      <trkpt lat="44.26292" lon="0.95746">
        <ele>225.287</ele>
        <time>2017-08-18T09:43:48Z</time>
      </trkpt>
      <trkpt lat="44.26286" lon="0.95702">
        <ele>221.217</ele>
        <time>2017-08-18T09:43:53Z</time>
      </trkpt>
      <trkpt lat="44.26261" lon="0.95648">
        <ele>217.138</ele>
        <time>2017-08-18T09:43:59Z</time>
      </trkpt>
      <trkpt lat="44.26248" lon="0.95629">
        <ele>214.747</ele>
        <time>2017-08-18T09:44:02Z</time>
      </trkpt>
      <trkpt lat="44.26241" lon="0.95616">
        <ele>213.134</ele>
        <time>2017-08-18T09:44:06Z</time>
      </trkpt>
      <trkpt lat="44.2624" lon="0.95616">
        <ele>212.77</ele>
        <time>2017-08-18T09:44:11Z</time>
      </trkpt>
      <trkpt lat="44.26241" lon="0.95619">
        <ele>210.58</ele>
        <time>2017-08-18T09:44:42Z</time>
      </trkpt>
      <trkpt lat="44.26239" lon="0.95627">
        <ele>211.661</ele>
        <time>2017-08-18T09:44:47Z</time>
      </trkpt>
      <trkpt lat="44.26243" lon="0.95634">
        <ele>212.291</ele>
        <time>2017-08-18T09:44:52Z</time>
      </trkpt>
      <trkpt lat="44.2624" lon="0.95631">
        <ele>214.193</ele>
        <time>2017-08-18T09:44:57Z</time>
      </trkpt>
      <trkpt lat="44.26247" lon="0.95627">
        <ele>223.36</ele>
        <time>2017-08-18T09:53:02Z</time>
      </trkpt>
      <trkpt lat="44.26249" lon="0.95621">
        <ele>223.19</ele>
        <time>2017-08-18T09:53:07Z</time>
      </trkpt>
      <trkpt lat="44.26247" lon="0.95618">
        <ele>222.82</ele>
        <time>2017-08-18T09:53:09Z</time>
      </trkpt>
      <trkpt lat="44.26231" lon="0.95601">
        <ele>221.139</ele>
        <time>2017-08-18T09:53:16Z</time>
      </trkpt>
      <trkpt lat="44.26211" lon="0.95582">
        <ele>219.228</ele>
        <time>2017-08-18T09:53:21Z</time>
      </trkpt>
      <trkpt lat="44.26172" lon="0.95553">
        <ele>216.179</ele>
        <time>2017-08-18T09:53:28Z</time>
      </trkpt>
      <trkpt lat="44.26135" lon="0.95515">
        <ele>215.49</ele>
        <time>2017-08-18T09:53:35Z</time>
      </trkpt>
      <trkpt lat="44.26114" lon="0.95489">
        <ele>215.831</ele>
        <time>2017-08-18T09:53:41Z</time>
      </trkpt>
      <trkpt lat="44.26094" lon="0.95462">
        <ele>216.181</ele>
        <time>2017-08-18T09:53:49Z</time>
      </trkpt>
      <trkpt lat="44.26074" lon="0.95432">
        <ele>217.62</ele>
        <time>2017-08-18T09:53:58Z</time>
      </trkpt>
      <trkpt lat="44.2605" lon="0.95398">
        <ele>217.72</ele>
        <time>2017-08-18T09:54:09Z</time>
      </trkpt>
      <trkpt lat="44.26032" lon="0.95369">
        <ele>217.95</ele>
        <time>2017-08-18T09:54:18Z</time>
      </trkpt>
      <trkpt lat="44.2602" lon="0.95346">
        <ele>218.46</ele>
        <time>2017-08-18T09:54:25Z</time>
      </trkpt>
      <trkpt lat="44.26008" lon="0.95316">
        <ele>220.871</ele>
        <time>2017-08-18T09:54:34Z</time>
      </trkpt>
      <trkpt lat="44.26" lon="0.95296">
        <ele>222.75</ele>
        <time>2017-08-18T09:54:40Z</time>
      </trkpt>
      <trkpt lat="44.25985" lon="0.95255">
        <ele>221.189</ele>
        <time>2017-08-18T09:54:50Z</time>
      </trkpt>
      <trkpt lat="44.25971" lon="0.95214">
        <ele>220.518</ele>
        <time>2017-08-18T09:54:59Z</time>
      </trkpt>
      <trkpt lat="44.25954" lon="0.95167">
        <ele>220.038</ele>
        <time>2017-08-18T09:55:09Z</time>
      </trkpt>
      <trkpt lat="44.25938" lon="0.95124">
        <ele>221.688</ele>
        <time>2017-08-18T09:55:19Z</time>
      </trkpt>
      <trkpt lat="44.25923" lon="0.95079">
        <ele>222.638</ele>
        <time>2017-08-18T09:55:30Z</time>
      </trkpt>
      <trkpt lat="44.25906" lon="0.95031">
        <ele>222.308</ele>
        <time>2017-08-18T09:55:42Z</time>
      </trkpt>
      <trkpt lat="44.25887" lon="0.94977">
        <ele>222.528</ele>
        <time>2017-08-18T09:55:54Z</time>
      </trkpt>
      <trkpt lat="44.25867" lon="0.94921">
        <ele>222.737</ele>
        <time>2017-08-18T09:56:06Z</time>
      </trkpt>
      <trkpt lat="44.25848" lon="0.94868">
        <ele>223.968</ele>
        <time>2017-08-18T09:56:18Z</time>
      </trkpt>
      <trkpt lat="44.25832" lon="0.94838">
        <ele>224.878</ele>
        <time>2017-08-18T09:56:25Z</time>
      </trkpt>
      <trkpt lat="44.25816" lon="0.9481">
        <ele>225.878</ele>
        <time>2017-08-18T09:56:33Z</time>
      </trkpt>
      <trkpt lat="44.25815" lon="0.94789">
        <ele>226.108</ele>
        <time>2017-08-18T09:56:38Z</time>
      </trkpt>
      <trkpt lat="44.25822" lon="0.94749">
        <ele>226.318</ele>
        <time>2017-08-18T09:56:48Z</time>
      </trkpt>
      <trkpt lat="44.25827" lon="0.94719">
        <ele>226.597</ele>
        <time>2017-08-18T09:56:57Z</time>
      </trkpt>
      <trkpt lat="44.25835" lon="0.94681">
        <ele>226.517</ele>
        <time>2017-08-18T09:57:09Z</time>
      </trkpt>
      <trkpt lat="44.25842" lon="0.94636">
        <ele>227.157</ele>
        <time>2017-08-18T09:57:23Z</time>
      </trkpt>
      <trkpt lat="44.25848" lon="0.94607">
        <ele>227.358</ele>
        <time>2017-08-18T09:57:33Z</time>
      </trkpt>
      <trkpt lat="44.25853" lon="0.94575">
        <ele>227.707</ele>
        <time>2017-08-18T09:57:44Z</time>
      </trkpt>
      <trkpt lat="44.25858" lon="0.94547">
        <ele>227.827</ele>
        <time>2017-08-18T09:57:52Z</time>
      </trkpt>
      <trkpt lat="44.25865" lon="0.94508">
        <ele>227.977</ele>
        <time>2017-08-18T09:58:01Z</time>
      </trkpt>
      <trkpt lat="44.25873" lon="0.94462">
        <ele>228.606</ele>
        <time>2017-08-18T09:58:12Z</time>
      </trkpt>
      <trkpt lat="44.2588" lon="0.9442">
        <ele>229.386</ele>
        <time>2017-08-18T09:58:22Z</time>
      </trkpt>
      <trkpt lat="44.25888" lon="0.94371">
        <ele>229.787</ele>
        <time>2017-08-18T09:58:34Z</time>
      </trkpt>
      <trkpt lat="44.25899" lon="0.9432">
        <ele>230.337</ele>
        <time>2017-08-18T09:58:47Z</time>
      </trkpt>
      <trkpt lat="44.25911" lon="0.94276">
        <ele>230.036</ele>
        <time>2017-08-18T09:58:58Z</time>
      </trkpt>
      <trkpt lat="44.25928" lon="0.94228">
        <ele>229.516</ele>
        <time>2017-08-18T09:59:09Z</time>
      </trkpt>
      <trkpt lat="44.25948" lon="0.94179">
        <ele>228.936</ele>
        <time>2017-08-18T09:59:20Z</time>
      </trkpt>
      <trkpt lat="44.25968" lon="0.9413">
        <ele>228.306</ele>
        <time>2017-08-18T09:59:31Z</time>
      </trkpt>
      <trkpt lat="44.25986" lon="0.94085">
        <ele>227.306</ele>
        <time>2017-08-18T09:59:41Z</time>
      </trkpt>
      <trkpt lat="44.26006" lon="0.94049">
        <ele>226.856</ele>
        <time>2017-08-18T09:59:50Z</time>
      </trkpt>
      <trkpt lat="44.26034" lon="0.94021">
        <ele>226.616</ele>
        <time>2017-08-18T09:59:59Z</time>
      </trkpt>
      <trkpt lat="44.26064" lon="0.94005">
        <ele>226.476</ele>
        <time>2017-08-18T10:00:08Z</time>
      </trkpt>
      <trkpt lat="44.26102" lon="0.93988">
        <ele>226.236</ele>
        <time>2017-08-18T10:00:19Z</time>
      </trkpt>
      <trkpt lat="44.26126" lon="0.93977">
        <ele>226.146</ele>
        <time>2017-08-18T10:00:26Z</time>
      </trkpt>
      <trkpt lat="44.26171" lon="0.93957">
        <ele>226.016</ele>
        <time>2017-08-18T10:00:38Z</time>
      </trkpt>
      <trkpt lat="44.26208" lon="0.9394">
        <ele>225.796</ele>
        <time>2017-08-18T10:00:48Z</time>
      </trkpt>
      <trkpt lat="44.26246" lon="0.93922">
        <ele>226.097</ele>
        <time>2017-08-18T10:00:59Z</time>
      </trkpt>
      <trkpt lat="44.26287" lon="0.93902">
        <ele>226.767</ele>
        <time>2017-08-18T10:01:11Z</time>
      </trkpt>
      <trkpt lat="44.26314" lon="0.93883">
        <ele>227.397</ele>
        <time>2017-08-18T10:01:20Z</time>
      </trkpt>
      <trkpt lat="44.26343" lon="0.93849">
        <ele>228.147</ele>
        <time>2017-08-18T10:01:31Z</time>
      </trkpt>
      <trkpt lat="44.26367" lon="0.93813">
        <ele>228.137</ele>
        <time>2017-08-18T10:01:41Z</time>
      </trkpt>
      <trkpt lat="44.26387" lon="0.93778">
        <ele>228.077</ele>
        <time>2017-08-18T10:01:50Z</time>
      </trkpt>
      <trkpt lat="44.26412" lon="0.93729">
        <ele>227.487</ele>
        <time>2017-08-18T10:02:01Z</time>
      </trkpt>
      <trkpt lat="44.26431" lon="0.93675">
        <ele>227.267</ele>
        <time>2017-08-18T10:02:12Z</time>
      </trkpt>
      <trkpt lat="44.26441" lon="0.93629">
        <ele>227.628</ele>
        <time>2017-08-18T10:02:21Z</time>
      </trkpt>
      <trkpt lat="44.26448" lon="0.93592">
        <ele>227.807</ele>
        <time>2017-08-18T10:02:29Z</time>
      </trkpt>
      <trkpt lat="44.26455" lon="0.93548">
        <ele>227.327</ele>
        <time>2017-08-18T10:02:38Z</time>
      </trkpt>
      <trkpt lat="44.26465" lon="0.93488">
        <ele>226.577</ele>
        <time>2017-08-18T10:02:48Z</time>
      </trkpt>
      <trkpt lat="44.26476" lon="0.93424">
        <ele>226.267</ele>
        <time>2017-08-18T10:02:58Z</time>
      </trkpt>
      <trkpt lat="44.26488" lon="0.93354">
        <ele>225.957</ele>
        <time>2017-08-18T10:03:09Z</time>
      </trkpt>
      <trkpt lat="44.26499" lon="0.93287">
        <ele>225.577</ele>
        <time>2017-08-18T10:03:19Z</time>
      </trkpt>
      <trkpt lat="44.26513" lon="0.93214">
        <ele>225.647</ele>
        <time>2017-08-18T10:03:31Z</time>
      </trkpt>
      <trkpt lat="44.26523" lon="0.93166">
        <ele>225.887</ele>
        <time>2017-08-18T10:03:40Z</time>
      </trkpt>
      <trkpt lat="44.26539" lon="0.93101">
        <ele>226.087</ele>
        <time>2017-08-18T10:03:53Z</time>
      </trkpt>
      <trkpt lat="44.26553" lon="0.93041">
        <ele>226.417</ele>
        <time>2017-08-18T10:04:06Z</time>
      </trkpt>
      <trkpt lat="44.26567" lon="0.92984">
        <ele>226.727</ele>
        <time>2017-08-18T10:04:18Z</time>
      </trkpt>
      <trkpt lat="44.26579" lon="0.92933">
        <ele>227.047</ele>
        <time>2017-08-18T10:04:28Z</time>
      </trkpt>
      <trkpt lat="44.26591" lon="0.92885">
        <ele>227.017</ele>
        <time>2017-08-18T10:04:36Z</time>
      </trkpt>
      <trkpt lat="44.26606" lon="0.9282">
        <ele>226.897</ele>
        <time>2017-08-18T10:04:45Z</time>
      </trkpt>
      <trkpt lat="44.26618" lon="0.92774">
        <ele>226.817</ele>
        <time>2017-08-18T10:04:52Z</time>
      </trkpt>
      <trkpt lat="44.26622" lon="0.92753">
        <ele>226.867</ele>
        <time>2017-08-18T10:04:56Z</time>
      </trkpt>
      <trkpt lat="44.26616" lon="0.92745">
        <ele>226.206</ele>
        <time>2017-08-18T10:05:00Z</time>
      </trkpt>
      <trkpt lat="44.26612" lon="0.92748">
        <ele>225.716</ele>
        <time>2017-08-18T10:05:05Z</time>
      </trkpt>
      <trkpt lat="44.26607" lon="0.92754">
        <ele>224.566</ele>
        <time>2017-08-18T10:05:26Z</time>
      </trkpt>
      <trkpt lat="44.26592" lon="0.92766">
        <ele>224.146</ele>
        <time>2017-08-18T10:05:30Z</time>
      </trkpt>
      <trkpt lat="44.26554" lon="0.92794">
        <ele>223.566</ele>
        <time>2017-08-18T10:05:37Z</time>
      </trkpt>
      <trkpt lat="44.26536" lon="0.92806">
        <ele>223.266</ele>
        <time>2017-08-18T10:05:40Z</time>
      </trkpt>
      <trkpt lat="44.26501" lon="0.92809">
        <ele>223.047</ele>
        <time>2017-08-18T10:05:45Z</time>
      </trkpt>
      <trkpt lat="44.26459" lon="0.92799">
        <ele>223.487</ele>
        <time>2017-08-18T10:05:52Z</time>
      </trkpt>
      <trkpt lat="44.26407" lon="0.92785">
        <ele>223.666</ele>
        <time>2017-08-18T10:06:02Z</time>
      </trkpt>
      <trkpt lat="44.26347" lon="0.9277">
        <ele>222.935</ele>
        <time>2017-08-18T10:06:13Z</time>
      </trkpt>
      <trkpt lat="44.26288" lon="0.92754">
        <ele>221.735</ele>
        <time>2017-08-18T10:06:23Z</time>
      </trkpt>
      <trkpt lat="44.26232" lon="0.9274">
        <ele>220.865</ele>
        <time>2017-08-18T10:06:33Z</time>
      </trkpt>
      <trkpt lat="44.26196" lon="0.92735">
        <ele>221.366</ele>
        <time>2017-08-18T10:06:40Z</time>
      </trkpt>
      <trkpt lat="44.26155" lon="0.92733">
        <ele>221.576</ele>
        <time>2017-08-18T10:06:49Z</time>
      </trkpt>
      <trkpt lat="44.26111" lon="0.92737">
        <ele>220.985</ele>
        <time>2017-08-18T10:06:58Z</time>
      </trkpt>
      <trkpt lat="44.26048" lon="0.92747">
        <ele>220.304</ele>
        <time>2017-08-18T10:07:10Z</time>
      </trkpt>
      <trkpt lat="44.26023" lon="0.92751">
        <ele>219.883</ele>
        <time>2017-08-18T10:07:15Z</time>
      </trkpt>
      <trkpt lat="44.26006" lon="0.92738">
        <ele>218.682</ele>
        <time>2017-08-18T10:07:19Z</time>
      </trkpt>
      <trkpt lat="44.26006" lon="0.92723">
        <ele>218.223</ele>
        <time>2017-08-18T10:07:21Z</time>
      </trkpt>
      <trkpt lat="44.26012" lon="0.92655">
        <ele>217.414</ele>
        <time>2017-08-18T10:07:30Z</time>
      </trkpt>
      <trkpt lat="44.26011" lon="0.92647">
        <ele>217.354</ele>
        <time>2017-08-18T10:07:31Z</time>
      </trkpt>
      <trkpt lat="44.25997" lon="0.92596">
        <ele>217.505</ele>
        <time>2017-08-18T10:07:38Z</time>
      </trkpt>
      <trkpt lat="44.25976" lon="0.9254">
        <ele>218.775</ele>
        <time>2017-08-18T10:07:46Z</time>
      </trkpt>
      <trkpt lat="44.25952" lon="0.92466">
        <ele>219.705</ele>
        <time>2017-08-18T10:07:57Z</time>
      </trkpt>
      <trkpt lat="44.25935" lon="0.92409">
        <ele>220.504</ele>
        <time>2017-08-18T10:08:06Z</time>
      </trkpt>
      <trkpt lat="44.25921" lon="0.92363">
        <ele>221.784</ele>
        <time>2017-08-18T10:08:15Z</time>
      </trkpt>
      <trkpt lat="44.259" lon="0.92327">
        <ele>222.674</ele>
        <time>2017-08-18T10:08:24Z</time>
      </trkpt>
      <trkpt lat="44.25867" lon="0.92293">
        <ele>223.393</ele>
        <time>2017-08-18T10:08:35Z</time>
      </trkpt>
      <trkpt lat="44.25842" lon="0.9227">
        <ele>223.403</ele>
        <time>2017-08-18T10:08:43Z</time>
      </trkpt>
      <trkpt lat="44.25815" lon="0.92239">
        <ele>222.682</ele>
        <time>2017-08-18T10:08:52Z</time>
      </trkpt>
      <trkpt lat="44.25808" lon="0.92213">
        <ele>222.573</ele>
        <time>2017-08-18T10:08:57Z</time>
      </trkpt>
      <trkpt lat="44.25799" lon="0.92161">
        <ele>222.302</ele>
        <time>2017-08-18T10:09:07Z</time>
      </trkpt>
      <trkpt lat="44.25789" lon="0.92113">
        <ele>222.022</ele>
        <time>2017-08-18T10:09:16Z</time>
      </trkpt>
      <trkpt lat="44.25779" lon="0.92058">
        <ele>222.202</ele>
        <time>2017-08-18T10:09:27Z</time>
      </trkpt>
      <trkpt lat="44.25765" lon="0.92025">
        <ele>222.622</ele>
        <time>2017-08-18T10:09:34Z</time>
      </trkpt>
      <trkpt lat="44.25763" lon="0.92021">
        <ele>222.712</ele>
        <time>2017-08-18T10:09:35Z</time>
      </trkpt>
      <trkpt lat="44.2573" lon="0.91984">
        <ele>223.052</ele>
        <time>2017-08-18T10:09:45Z</time>
      </trkpt>
      <trkpt lat="44.25697" lon="0.91973">
        <ele>222.251</ele>
        <time>2017-08-18T10:09:52Z</time>
      </trkpt>
      <trkpt lat="44.2565" lon="0.91958">
        <ele>220.991</ele>
        <time>2017-08-18T10:10:01Z</time>
      </trkpt>
      <trkpt lat="44.2564" lon="0.91952">
        <ele>220.791</ele>
        <time>2017-08-18T10:10:03Z</time>
      </trkpt>
      <trkpt lat="44.25624" lon="0.91926">
        <ele>220.421</ele>
        <time>2017-08-18T10:10:08Z</time>
      </trkpt>
      <trkpt lat="44.25625" lon="0.91901">
        <ele>220.791</ele>
        <time>2017-08-18T10:10:12Z</time>
      </trkpt>
      <trkpt lat="44.25628" lon="0.91878">
        <ele>221.191</ele>
        <time>2017-08-18T10:10:16Z</time>
      </trkpt>
      <trkpt lat="44.25619" lon="0.91846">
        <ele>221.671</ele>
        <time>2017-08-18T10:10:22Z</time>
      </trkpt>
      <trkpt lat="44.25613" lon="0.91837">
        <ele>221.731</ele>
        <time>2017-08-18T10:10:24Z</time>
      </trkpt>
      <trkpt lat="44.25573" lon="0.91795">
        <ele>221.841</ele>
        <time>2017-08-18T10:10:35Z</time>
      </trkpt>
      <trkpt lat="44.25529" lon="0.91751">
        <ele>222.361</ele>
        <time>2017-08-18T10:10:47Z</time>
      </trkpt>
      <trkpt lat="44.2549" lon="0.91714">
        <ele>222.42</ele>
        <time>2017-08-18T10:10:58Z</time>
      </trkpt>
      <trkpt lat="44.25486" lon="0.9171">
        <ele>222.21</ele>
        <time>2017-08-18T10:10:59Z</time>
      </trkpt>
      <trkpt lat="44.25472" lon="0.91679">
        <ele>220.469</ele>
        <time>2017-08-18T10:11:04Z</time>
      </trkpt>
      <trkpt lat="44.25474" lon="0.91645">
        <ele>219.568</ele>
        <time>2017-08-18T10:11:08Z</time>
      </trkpt>
      <trkpt lat="44.25495" lon="0.91549">
        <ele>217.789</ele>
        <time>2017-08-18T10:11:20Z</time>
      </trkpt>
      <trkpt lat="44.2551" lon="0.91522">
        <ele>217.519</ele>
        <time>2017-08-18T10:11:25Z</time>
      </trkpt>
      <trkpt lat="44.25522" lon="0.9151">
        <ele>217.59</ele>
        <time>2017-08-18T10:11:28Z</time>
      </trkpt>
      <trkpt lat="44.25573" lon="0.91481">
        <ele>217.049</ele>
        <time>2017-08-18T10:11:40Z</time>
      </trkpt>
      <trkpt lat="44.25577" lon="0.91478">
        <ele>216.909</ele>
        <time>2017-08-18T10:11:41Z</time>
      </trkpt>
      <trkpt lat="44.25593" lon="0.91454">
        <ele>215.678</ele>
        <time>2017-08-18T10:11:46Z</time>
      </trkpt>
      <trkpt lat="44.25595" lon="0.91423">
        <ele>214.077</ele>
        <time>2017-08-18T10:11:50Z</time>
      </trkpt>
      <trkpt lat="44.2559" lon="0.91407">
        <ele>213.217</ele>
        <time>2017-08-18T10:11:52Z</time>
      </trkpt>
      <trkpt lat="44.25554" lon="0.91314">
        <ele>211.599</ele>
        <time>2017-08-18T10:12:03Z</time>
      </trkpt>
      <trkpt lat="44.25539" lon="0.91277">
        <ele>212.49</ele>
        <time>2017-08-18T10:12:09Z</time>
      </trkpt>
      <trkpt lat="44.25516" lon="0.91223">
        <ele>214.05</ele>
        <time>2017-08-18T10:12:20Z</time>
      </trkpt>
      <trkpt lat="44.25498" lon="0.91192">
        <ele>215.71</ele>
        <time>2017-08-18T10:12:28Z</time>
      </trkpt>
      <trkpt lat="44.25482" lon="0.91173">
        <ele>216.68</ele>
        <time>2017-08-18T10:12:35Z</time>
      </trkpt>
      <trkpt lat="44.25454" lon="0.91146">
        <ele>217.91</ele>
        <time>2017-08-18T10:12:46Z</time>
      </trkpt>
      <trkpt lat="44.25433" lon="0.91127">
        <ele>218.379</ele>
        <time>2017-08-18T10:12:56Z</time>
      </trkpt>
      <trkpt lat="44.25411" lon="0.91106">
        <ele>217.739</ele>
        <time>2017-08-18T10:13:05Z</time>
      </trkpt>
      <trkpt lat="44.25378" lon="0.91074">
        <ele>217.088</ele>
        <time>2017-08-18T10:13:16Z</time>
      </trkpt>
      <trkpt lat="44.25347" lon="0.91041">
        <ele>217.108</ele>
        <time>2017-08-18T10:13:27Z</time>
      </trkpt>
      <trkpt lat="44.25312" lon="0.91">
        <ele>217.908</ele>
        <time>2017-08-18T10:13:39Z</time>
      </trkpt>
      <trkpt lat="44.25279" lon="0.90964">
        <ele>218.578</ele>
        <time>2017-08-18T10:13:51Z</time>
      </trkpt>
      <trkpt lat="44.25245" lon="0.90934">
        <ele>219.188</ele>
        <time>2017-08-18T10:14:03Z</time>
      </trkpt>
      <trkpt lat="44.25215" lon="0.90914">
        <ele>219.647</ele>
        <time>2017-08-18T10:14:13Z</time>
      </trkpt>
      <trkpt lat="44.25193" lon="0.90906">
        <ele>220.917</ele>
        <time>2017-08-18T10:14:20Z</time>
      </trkpt>
      <trkpt lat="44.25162" lon="0.90901">
        <ele>221.937</ele>
        <time>2017-08-18T10:14:30Z</time>
      </trkpt>
      <trkpt lat="44.25128" lon="0.90902">
        <ele>221.767</ele>
        <time>2017-08-18T10:14:40Z</time>
      </trkpt>
      <trkpt lat="44.25083" lon="0.90901">
        <ele>221.066</ele>
        <time>2017-08-18T10:14:51Z</time>
      </trkpt>
      <trkpt lat="44.25046" lon="0.90894">
        <ele>220.467</ele>
        <time>2017-08-18T10:15:00Z</time>
      </trkpt>
      <trkpt lat="44.25012" lon="0.90884">
        <ele>219.085</ele>
        <time>2017-08-18T10:15:08Z</time>
      </trkpt>
      <trkpt lat="44.24977" lon="0.90877">
        <ele>217.504</ele>
        <time>2017-08-18T10:15:14Z</time>
      </trkpt>
      <trkpt lat="44.24941" lon="0.9088">
        <ele>215.424</ele>
        <time>2017-08-18T10:15:19Z</time>
      </trkpt>
      <trkpt lat="44.24893" lon="0.90897">
        <ele>213.654</ele>
        <time>2017-08-18T10:15:25Z</time>
      </trkpt>
      <trkpt lat="44.24809" lon="0.90935">
        <ele>212.886</ele>
        <time>2017-08-18T10:15:35Z</time>
      </trkpt>
      <trkpt lat="44.24763" lon="0.90951">
        <ele>211.666</ele>
        <time>2017-08-18T10:15:41Z</time>
      </trkpt>
      <trkpt lat="44.24712" lon="0.90946">
        <ele>211.695</ele>
        <time>2017-08-18T10:15:48Z</time>
      </trkpt>
      <trkpt lat="44.24684" lon="0.90931">
        <ele>210.353</ele>
        <time>2017-08-18T10:15:52Z</time>
      </trkpt>
      <trkpt lat="44.24634" lon="0.90891">
        <ele>208.394</ele>
        <time>2017-08-18T10:15:59Z</time>
      </trkpt>
      <trkpt lat="44.24572" lon="0.90835">
        <ele>206.722</ele>
        <time>2017-08-18T10:16:08Z</time>
      </trkpt>
      <trkpt lat="44.24531" lon="0.90795">
        <ele>206.674</ele>
        <time>2017-08-18T10:16:15Z</time>
      </trkpt>
      <trkpt lat="44.24501" lon="0.90763">
        <ele>207.194</ele>
        <time>2017-08-18T10:16:22Z</time>
      </trkpt>
      <trkpt lat="44.24476" lon="0.90733">
        <ele>208.135</ele>
        <time>2017-08-18T10:16:29Z</time>
      </trkpt>
      <trkpt lat="44.24454" lon="0.90698">
        <ele>209.715</ele>
        <time>2017-08-18T10:16:38Z</time>
      </trkpt>
      <trkpt lat="44.24437" lon="0.90661">
        <ele>211.145</ele>
        <time>2017-08-18T10:16:47Z</time>
      </trkpt>
      <trkpt lat="44.2443" lon="0.90626">
        <ele>212.434</ele>
        <time>2017-08-18T10:16:55Z</time>
      </trkpt>
      <trkpt lat="44.2442" lon="0.90574">
        <ele>213.834</ele>
        <time>2017-08-18T10:17:07Z</time>
      </trkpt>
      <trkpt lat="44.24411" lon="0.90536">
        <ele>215.014</ele>
        <time>2017-08-18T10:17:17Z</time>
      </trkpt>
      <trkpt lat="44.24402" lon="0.90496">
        <ele>216.703</ele>
        <time>2017-08-18T10:17:28Z</time>
      </trkpt>
      <trkpt lat="44.24394" lon="0.90462">
        <ele>218.053</ele>
        <time>2017-08-18T10:17:38Z</time>
      </trkpt>
      <trkpt lat="44.24388" lon="0.9043">
        <ele>218.913</ele>
        <time>2017-08-18T10:17:47Z</time>
      </trkpt>
      <trkpt lat="44.24385" lon="0.90394">
        <ele>219.293</ele>
        <time>2017-08-18T10:17:57Z</time>
      </trkpt>
      <trkpt lat="44.24384" lon="0.90365">
        <ele>219.403</ele>
        <time>2017-08-18T10:18:05Z</time>
      </trkpt>
      <trkpt lat="44.24382" lon="0.90323">
        <ele>219.172</ele>
        <time>2017-08-18T10:18:14Z</time>
      </trkpt>
      <trkpt lat="44.24376" lon="0.9027">
        <ele>218.361</ele>
        <time>2017-08-18T10:18:25Z</time>
      </trkpt>
      <trkpt lat="44.24367" lon="0.90223">
        <ele>217.211</ele>
        <time>2017-08-18T10:18:33Z</time>
      </trkpt>
      <trkpt lat="44.24355" lon="0.90171">
        <ele>216.752</ele>
        <time>2017-08-18T10:18:42Z</time>
      </trkpt>
      <trkpt lat="44.24346" lon="0.90139">
        <ele>216.882</ele>
        <time>2017-08-18T10:18:49Z</time>
      </trkpt>
      <trkpt lat="44.24334" lon="0.90095">
        <ele>217.493</ele>
        <time>2017-08-18T10:18:58Z</time>
      </trkpt>
      <trkpt lat="44.24316" lon="0.90044">
        <ele>219.242</ele>
        <time>2017-08-18T10:19:09Z</time>
      </trkpt>
      <trkpt lat="44.24304" lon="0.90008">
        <ele>219.862</ele>
        <time>2017-08-18T10:19:17Z</time>
      </trkpt>
      <trkpt lat="44.24292" lon="0.89957">
        <ele>220.172</ele>
        <time>2017-08-18T10:19:28Z</time>
      </trkpt>
      <trkpt lat="44.24282" lon="0.89907">
        <ele>221.002</ele>
        <time>2017-08-18T10:19:39Z</time>
      </trkpt>
      <trkpt lat="44.24276" lon="0.89867">
        <ele>222.222</ele>
        <time>2017-08-18T10:19:48Z</time>
      </trkpt>
      <trkpt lat="44.24273" lon="0.89811">
        <ele>223.352</ele>
        <time>2017-08-18T10:20:00Z</time>
      </trkpt>
      <trkpt lat="44.24277" lon="0.8977">
        <ele>223.891</ele>
        <time>2017-08-18T10:20:09Z</time>
      </trkpt>
      <trkpt lat="44.24282" lon="0.89742">
        <ele>223.089</ele>
        <time>2017-08-18T10:20:16Z</time>
      </trkpt>
      <trkpt lat="44.24286" lon="0.89708">
        <ele>222.88</ele>
        <time>2017-08-18T10:20:25Z</time>
      </trkpt>
      <trkpt lat="44.24286" lon="0.89682">
        <ele>222.52</ele>
        <time>2017-08-18T10:20:31Z</time>
      </trkpt>
      <trkpt lat="44.24282" lon="0.89659">
        <ele>222.19</ele>
        <time>2017-08-18T10:20:38Z</time>
      </trkpt>
      <trkpt lat="44.24273" lon="0.89623">
        <ele>221.76</ele>
        <time>2017-08-18T10:20:47Z</time>
      </trkpt>
      <trkpt lat="44.24264" lon="0.89586">
        <ele>220.559</ele>
        <time>2017-08-18T10:20:54Z</time>
      </trkpt>
      <trkpt lat="44.24253" lon="0.89529">
        <ele>219.28</ele>
        <time>2017-08-18T10:21:02Z</time>
      </trkpt>
      <trkpt lat="44.24241" lon="0.89486">
        <ele>219.01</ele>
        <time>2017-08-18T10:21:08Z</time>
      </trkpt>
      <trkpt lat="44.24218" lon="0.89453">
        <ele>217.498</ele>
        <time>2017-08-18T10:21:14Z</time>
      </trkpt>
      <trkpt lat="44.24171" lon="0.89425">
        <ele>216.119</ele>
        <time>2017-08-18T10:21:22Z</time>
      </trkpt>
      <trkpt lat="44.24128" lon="0.8942">
        <ele>215.349</ele>
        <time>2017-08-18T10:21:29Z</time>
      </trkpt>
      <trkpt lat="44.24116" lon="0.89419">
        <ele>215.179</ele>
        <time>2017-08-18T10:21:31Z</time>
      </trkpt>
      <trkpt lat="44.24071" lon="0.89404">
        <ele>215.05</ele>
        <time>2017-08-18T10:21:40Z</time>
      </trkpt>
      <trkpt lat="44.24033" lon="0.89378">
        <ele>215.78</ele>
        <time>2017-08-18T10:21:49Z</time>
      </trkpt>
      <trkpt lat="44.2401" lon="0.89352">
        <ele>216.34</ele>
        <time>2017-08-18T10:21:56Z</time>
      </trkpt>
      <trkpt lat="44.23993" lon="0.8932">
        <ele>216.89</ele>
        <time>2017-08-18T10:22:04Z</time>
      </trkpt>
      <trkpt lat="44.23982" lon="0.89302">
        <ele>217.17</ele>
        <time>2017-08-18T10:22:10Z</time>
      </trkpt>
      <trkpt lat="44.23979" lon="0.89297">
        <ele>217.238</ele>
        <time>2017-08-18T10:22:15Z</time>
      </trkpt>
      <trkpt lat="44.23977" lon="0.89295">
        <ele>217.188</ele>
        <time>2017-08-18T10:22:23Z</time>
      </trkpt>
      <trkpt lat="44.23974" lon="0.89291">
        <ele>216.808</ele>
        <time>2017-08-18T10:22:38Z</time>
      </trkpt>
      <trkpt lat="44.23967" lon="0.89283">
        <ele>216.097</ele>
        <time>2017-08-18T10:22:42Z</time>
      </trkpt>
      <trkpt lat="44.23947" lon="0.89264">
        <ele>214.366</ele>
        <time>2017-08-18T10:22:47Z</time>
      </trkpt>
      <trkpt lat="44.23919" lon="0.89236">
        <ele>211.504</ele>
        <time>2017-08-18T10:22:52Z</time>
      </trkpt>
      <trkpt lat="44.23882" lon="0.892">
        <ele>207.804</ele>
        <time>2017-08-18T10:22:57Z</time>
      </trkpt>
      <trkpt lat="44.23814" lon="0.89122">
        <ele>203.526</ele>
        <time>2017-08-18T10:23:06Z</time>
      </trkpt>
      <trkpt lat="44.23762" lon="0.89059">
        <ele>202.066</ele>
        <time>2017-08-18T10:23:14Z</time>
      </trkpt>
      <trkpt lat="44.23732" lon="0.8902">
        <ele>202.298</ele>
        <time>2017-08-18T10:23:20Z</time>
      </trkpt>
      <trkpt lat="44.23711" lon="0.88991">
        <ele>203.708</ele>
        <time>2017-08-18T10:23:26Z</time>
      </trkpt>
      <trkpt lat="44.2368" lon="0.88947">
        <ele>203.125</ele>
        <time>2017-08-18T10:23:36Z</time>
      </trkpt>
      <trkpt lat="44.23655" lon="0.88909">
        <ele>200.734</ele>
        <time>2017-08-18T10:23:42Z</time>
      </trkpt>
      <trkpt lat="44.23611" lon="0.88847">
        <ele>199.698</ele>
        <time>2017-08-18T10:23:51Z</time>
      </trkpt>
      <trkpt lat="44.23588" lon="0.88815">
        <ele>201.158</ele>
        <time>2017-08-18T10:23:57Z</time>
      </trkpt>
      <trkpt lat="44.2357" lon="0.88789">
        <ele>203.158</ele>
        <time>2017-08-18T10:24:04Z</time>
      </trkpt>
      <trkpt lat="44.23554" lon="0.88765">
        <ele>205.287</ele>
        <time>2017-08-18T10:24:13Z</time>
      </trkpt>
      <trkpt lat="44.23537" lon="0.88738">
        <ele>207.316</ele>
        <time>2017-08-18T10:24:23Z</time>
      </trkpt>
      <trkpt lat="44.23519" lon="0.88704">
        <ele>209.476</ele>
        <time>2017-08-18T10:24:35Z</time>
      </trkpt>
      <trkpt lat="44.23501" lon="0.88668">
        <ele>211.586</ele>
        <time>2017-08-18T10:24:48Z</time>
      </trkpt>
      <trkpt lat="44.23488" lon="0.88646">
        <ele>212.486</ele>
        <time>2017-08-18T10:24:57Z</time>
      </trkpt>
      <trkpt lat="44.23484" lon="0.88639">
        <ele>212.445</ele>
        <time>2017-08-18T10:25:03Z</time>
      </trkpt>
      <trkpt lat="44.23478" lon="0.8863">
        <ele>212.395</ele>
        <time>2017-08-18T10:25:11Z</time>
      </trkpt>
      <trkpt lat="44.23468" lon="0.88614">
        <ele>211.934</ele>
        <time>2017-08-18T10:25:21Z</time>
      </trkpt>
      <trkpt lat="44.23455" lon="0.8859">
        <ele>211.344</ele>
        <time>2017-08-18T10:25:30Z</time>
      </trkpt>
      <trkpt lat="44.23444" lon="0.88563">
        <ele>210.814</ele>
        <time>2017-08-18T10:25:37Z</time>
      </trkpt>
      <trkpt lat="44.23432" lon="0.88524">
        <ele>210.455</ele>
        <time>2017-08-18T10:25:46Z</time>
      </trkpt>
      <trkpt lat="44.23417" lon="0.88483">
        <ele>210.595</ele>
        <time>2017-08-18T10:25:55Z</time>
      </trkpt>
      <trkpt lat="44.23396" lon="0.8844">
        <ele>211.916</ele>
        <time>2017-08-18T10:26:05Z</time>
      </trkpt>
      <trkpt lat="44.23382" lon="0.88414">
        <ele>211.755</ele>
        <time>2017-08-18T10:26:11Z</time>
      </trkpt>
      <trkpt lat="44.23362" lon="0.88372">
        <ele>210.743</ele>
        <time>2017-08-18T10:26:20Z</time>
      </trkpt>
      <trkpt lat="44.23342" lon="0.88325">
        <ele>210.013</ele>
        <time>2017-08-18T10:26:29Z</time>
      </trkpt>
      <trkpt lat="44.2332" lon="0.8828">
        <ele>209.434</ele>
        <time>2017-08-18T10:26:36Z</time>
      </trkpt>
      <trkpt lat="44.23291" lon="0.88243">
        <ele>209.093</ele>
        <time>2017-08-18T10:26:43Z</time>
      </trkpt>
      <trkpt lat="44.23265" lon="0.88231">
        <ele>209.064</ele>
        <time>2017-08-18T10:26:48Z</time>
      </trkpt>
      <trkpt lat="44.23239" lon="0.88231">
        <ele>208.823</ele>
        <time>2017-08-18T10:26:53Z</time>
      </trkpt>
      <trkpt lat="44.23204" lon="0.88239">
        <ele>208.644</ele>
        <time>2017-08-18T10:27:00Z</time>
      </trkpt>
      <trkpt lat="44.23168" lon="0.88247">
        <ele>207.913</ele>
        <time>2017-08-18T10:27:07Z</time>
      </trkpt>
      <trkpt lat="44.23123" lon="0.88253">
        <ele>207.243</ele>
        <time>2017-08-18T10:27:15Z</time>
      </trkpt>
      <trkpt lat="44.23076" lon="0.88254">
        <ele>207.072</ele>
        <time>2017-08-18T10:27:24Z</time>
      </trkpt>
      <trkpt lat="44.23016" lon="0.88255">
        <ele>207.883</ele>
        <time>2017-08-18T10:27:36Z</time>
      </trkpt>
      <trkpt lat="44.22977" lon="0.88257">
        <ele>209.183</ele>
        <time>2017-08-18T10:27:45Z</time>
      </trkpt>
      <trkpt lat="44.22942" lon="0.88266">
        <ele>210.934</ele>
        <time>2017-08-18T10:27:54Z</time>
      </trkpt>
      <trkpt lat="44.22904" lon="0.88283">
        <ele>212.803</ele>
        <time>2017-08-18T10:28:05Z</time>
      </trkpt>
      <trkpt lat="44.22883" lon="0.88292">
        <ele>213.612</ele>
        <time>2017-08-18T10:28:12Z</time>
      </trkpt>
      <trkpt lat="44.22875" lon="0.88292">
        <ele>213.162</ele>
        <time>2017-08-18T10:28:15Z</time>
      </trkpt>
      <trkpt lat="44.2287" lon="0.8828">
        <ele>212.761</ele>
        <time>2017-08-18T10:28:19Z</time>
      </trkpt>
      <trkpt lat="44.22873" lon="0.8824">
        <ele>212.271</ele>
        <time>2017-08-18T10:28:30Z</time>
      </trkpt>
      <trkpt lat="44.22878" lon="0.88198">
        <ele>211.561</ele>
        <time>2017-08-18T10:28:40Z</time>
      </trkpt>
      <trkpt lat="44.22881" lon="0.88155">
        <ele>210.971</ele>
        <time>2017-08-18T10:28:48Z</time>
      </trkpt>
      <trkpt lat="44.22887" lon="0.88086">
        <ele>209.92</ele>
        <time>2017-08-18T10:28:58Z</time>
      </trkpt>
      <trkpt lat="44.2289" lon="0.88023">
        <ele>209.501</ele>
        <time>2017-08-18T10:29:07Z</time>
      </trkpt>
      <trkpt lat="44.22893" lon="0.87945">
        <ele>210.101</ele>
        <time>2017-08-18T10:29:19Z</time>
      </trkpt>
      <trkpt lat="44.22895" lon="0.87885">
        <ele>210.591</ele>
        <time>2017-08-18T10:29:29Z</time>
      </trkpt>
      <trkpt lat="44.22897" lon="0.87821">
        <ele>210.661</ele>
        <time>2017-08-18T10:29:40Z</time>
      </trkpt>
      <trkpt lat="44.22895" lon="0.87776">
        <ele>209.84</ele>
        <time>2017-08-18T10:29:48Z</time>
      </trkpt>
      <trkpt lat="44.2289" lon="0.87725">
        <ele>208.72</ele>
        <time>2017-08-18T10:29:58Z</time>
      </trkpt>
      <trkpt lat="44.2289" lon="0.87677">
        <ele>208.13</ele>
        <time>2017-08-18T10:30:07Z</time>
      </trkpt>
      <trkpt lat="44.22892" lon="0.87627">
        <ele>207.33</ele>
        <time>2017-08-18T10:30:16Z</time>
      </trkpt>
      <trkpt lat="44.22889" lon="0.87578">
        <ele>206.41</ele>
        <time>2017-08-18T10:30:25Z</time>
      </trkpt>
      <trkpt lat="44.22883" lon="0.87537">
        <ele>205.579</ele>
        <time>2017-08-18T10:30:32Z</time>
      </trkpt>
      <trkpt lat="44.2287" lon="0.87467">
        <ele>204.57</ele>
        <time>2017-08-18T10:30:43Z</time>
      </trkpt>
      <trkpt lat="44.22859" lon="0.87399">
        <ele>204.01</ele>
        <time>2017-08-18T10:30:54Z</time>
      </trkpt>
      <trkpt lat="44.22846" lon="0.87317">
        <ele>203.58</ele>
        <time>2017-08-18T10:31:07Z</time>
      </trkpt>
      <trkpt lat="44.22835" lon="0.87251">
        <ele>203.66</ele>
        <time>2017-08-18T10:31:18Z</time>
      </trkpt>
      <trkpt lat="44.22825" lon="0.87186">
        <ele>203.759</ele>
        <time>2017-08-18T10:31:29Z</time>
      </trkpt>
      <trkpt lat="44.22819" lon="0.87144">
        <ele>203.479</ele>
        <time>2017-08-18T10:31:37Z</time>
      </trkpt>
      <trkpt lat="44.22813" lon="0.87084">
        <ele>202.448</ele>
        <time>2017-08-18T10:31:47Z</time>
      </trkpt>
      <trkpt lat="44.22811" lon="0.87009">
        <ele>200.648</ele>
        <time>2017-08-18T10:31:58Z</time>
      </trkpt>
      <trkpt lat="44.22809" lon="0.86977">
        <ele>199.978</ele>
        <time>2017-08-18T10:32:02Z</time>
      </trkpt>
      <trkpt lat="44.22798" lon="0.86914">
        <ele>199.359</ele>
        <time>2017-08-18T10:32:10Z</time>
      </trkpt>
      <trkpt lat="44.22781" lon="0.8684">
        <ele>197.637</ele>
        <time>2017-08-18T10:32:20Z</time>
      </trkpt>
      <trkpt lat="44.22758" lon="0.86782">
        <ele>196.468</ele>
        <time>2017-08-18T10:32:29Z</time>
      </trkpt>
      <trkpt lat="44.22737" lon="0.86749">
        <ele>195.657</ele>
        <time>2017-08-18T10:32:35Z</time>
      </trkpt>
      <trkpt lat="44.227" lon="0.86719">
        <ele>193.596</ele>
        <time>2017-08-18T10:32:42Z</time>
      </trkpt>
      <trkpt lat="44.22646" lon="0.86684">
        <ele>190.165</ele>
        <time>2017-08-18T10:32:50Z</time>
      </trkpt>
      <trkpt lat="44.22581" lon="0.86648">
        <ele>187.927</ele>
        <time>2017-08-18T10:32:59Z</time>
      </trkpt>
      <trkpt lat="44.22545" lon="0.86625">
        <ele>187.568</ele>
        <time>2017-08-18T10:33:05Z</time>
      </trkpt>
      <trkpt lat="44.22507" lon="0.86587">
        <ele>187.037</ele>
        <time>2017-08-18T10:33:13Z</time>
      </trkpt>
      <trkpt lat="44.22468" lon="0.86534">
        <ele>185.175</ele>
        <time>2017-08-18T10:33:22Z</time>
      </trkpt>
      <trkpt lat="44.22442" lon="0.86485">
        <ele>183.895</ele>
        <time>2017-08-18T10:33:29Z</time>
      </trkpt>
      <trkpt lat="44.22436" lon="0.8645">
        <ele>182.865</ele>
        <time>2017-08-18T10:33:33Z</time>
      </trkpt>
      <trkpt lat="44.22438" lon="0.86441">
        <ele>182.544</ele>
        <time>2017-08-18T10:33:34Z</time>
      </trkpt>
      <trkpt lat="44.22457" lon="0.86379">
        <ele>180.795</ele>
        <time>2017-08-18T10:33:42Z</time>
      </trkpt>
      <trkpt lat="44.22461" lon="0.86364">
        <ele>180.545</ele>
        <time>2017-08-18T10:33:44Z</time>
      </trkpt>
      <trkpt lat="44.22461" lon="0.86337">
        <ele>180.176</ele>
        <time>2017-08-18T10:33:48Z</time>
      </trkpt>
      <trkpt lat="44.22456" lon="0.86316">
        <ele>181.047</ele>
        <time>2017-08-18T10:33:53Z</time>
      </trkpt>
      <trkpt lat="44.22451" lon="0.86279">
        <ele>181.256</ele>
        <time>2017-08-18T10:34:02Z</time>
      </trkpt>
      <trkpt lat="44.22445" lon="0.86229">
        <ele>180.596</ele>
        <time>2017-08-18T10:34:13Z</time>
      </trkpt>
      <trkpt lat="44.22439" lon="0.86181">
        <ele>180.065</ele>
        <time>2017-08-18T10:34:24Z</time>
      </trkpt>
      <trkpt lat="44.22435" lon="0.86146">
        <ele>179.945</ele>
        <time>2017-08-18T10:34:34Z</time>
      </trkpt>
      <trkpt lat="44.2243" lon="0.86119">
        <ele>180.476</ele>
        <time>2017-08-18T10:34:41Z</time>
      </trkpt>
      <trkpt lat="44.22416" lon="0.86065">
        <ele>182.727</ele>
        <time>2017-08-18T10:34:54Z</time>
      </trkpt>
      <trkpt lat="44.22405" lon="0.86023">
        <ele>185.197</ele>
        <time>2017-08-18T10:35:05Z</time>
      </trkpt>
      <trkpt lat="44.22397" lon="0.85989">
        <ele>187.187</ele>
        <time>2017-08-18T10:35:14Z</time>
      </trkpt>
      <trkpt lat="44.22387" lon="0.85956">
        <ele>188.245</ele>
        <time>2017-08-18T10:35:23Z</time>
      </trkpt>
      <trkpt lat="44.22379" lon="0.85931">
        <ele>188.345</ele>
        <time>2017-08-18T10:35:32Z</time>
      </trkpt>
      <trkpt lat="44.22374" lon="0.85912">
        <ele>188.315</ele>
        <time>2017-08-18T10:35:39Z</time>
      </trkpt>
      <trkpt lat="44.22367" lon="0.85889">
        <ele>188.155</ele>
        <time>2017-08-18T10:35:48Z</time>
      </trkpt>
      <trkpt lat="44.22361" lon="0.85866">
        <ele>188.115</ele>
        <time>2017-08-18T10:35:53Z</time>
      </trkpt>
      <trkpt lat="44.22349" lon="0.85814">
        <ele>187.844</ele>
        <time>2017-08-18T10:36:02Z</time>
      </trkpt>
      <trkpt lat="44.22338" lon="0.85765">
        <ele>187.324</ele>
        <time>2017-08-18T10:36:10Z</time>
      </trkpt>
      <trkpt lat="44.22321" lon="0.85695">
        <ele>186.014</ele>
        <time>2017-08-18T10:36:21Z</time>
      </trkpt>
      <trkpt lat="44.22312" lon="0.85627">
        <ele>184.603</ele>
        <time>2017-08-18T10:36:31Z</time>
      </trkpt>
      <trkpt lat="44.22305" lon="0.85564">
        <ele>183.383</ele>
        <time>2017-08-18T10:36:41Z</time>
      </trkpt>
      <trkpt lat="44.22298" lon="0.85527">
        <ele>182.804</ele>
        <time>2017-08-18T10:36:48Z</time>
      </trkpt>
      <trkpt lat="44.22285" lon="0.85463">
        <ele>183.655</ele>
        <time>2017-08-18T10:37:00Z</time>
      </trkpt>
      <trkpt lat="44.22276" lon="0.85416">
        <ele>185.075</ele>
        <time>2017-08-18T10:37:10Z</time>
      </trkpt>
      <trkpt lat="44.22267" lon="0.85383">
        <ele>185.504</ele>
        <time>2017-08-18T10:37:18Z</time>
      </trkpt>
      <trkpt lat="44.22261" lon="0.85362">
        <ele>184.682</ele>
        <time>2017-08-18T10:37:23Z</time>
      </trkpt>
      <trkpt lat="44.22246" lon="0.85325">
        <ele>182.91</ele>
        <time>2017-08-18T10:37:29Z</time>
      </trkpt>
      <trkpt lat="44.22221" lon="0.8527">
        <ele>179.95</ele>
        <time>2017-08-18T10:37:36Z</time>
      </trkpt>
      <trkpt lat="44.22188" lon="0.85209">
        <ele>176.63</ele>
        <time>2017-08-18T10:37:43Z</time>
      </trkpt>
      <trkpt lat="44.22145" lon="0.8514">
        <ele>174.742</ele>
        <time>2017-08-18T10:37:51Z</time>
      </trkpt>
      <trkpt lat="44.2211" lon="0.85104">
        <ele>174.192</ele>
        <time>2017-08-18T10:37:57Z</time>
      </trkpt>
      <trkpt lat="44.22066" lon="0.85069">
        <ele>173.413</ele>
        <time>2017-08-18T10:38:05Z</time>
      </trkpt>
      <trkpt lat="44.22037" lon="0.85037">
        <ele>173.183</ele>
        <time>2017-08-18T10:38:12Z</time>
      </trkpt>
      <trkpt lat="44.22014" lon="0.85004">
        <ele>173.163</ele>
        <time>2017-08-18T10:38:20Z</time>
      </trkpt>
      <trkpt lat="44.21993" lon="0.84973">
        <ele>172.3</ele>
        <time>2017-08-18T10:38:26Z</time>
      </trkpt>
      <trkpt lat="44.21972" lon="0.84946">
        <ele>171.24</ele>
        <time>2017-08-18T10:38:31Z</time>
      </trkpt>
      <trkpt lat="44.21966" lon="0.84934">
        <ele>170.781</ele>
        <time>2017-08-18T10:38:35Z</time>
      </trkpt>
      <trkpt lat="44.21966" lon="0.84929">
        <ele>170.731</ele>
        <time>2017-08-18T10:38:43Z</time>
      </trkpt>
      <trkpt lat="44.21966" lon="0.84926">
        <ele>170.751</ele>
        <time>2017-08-18T10:38:47Z</time>
      </trkpt>
      <trkpt lat="44.21973" lon="0.84919">
        <ele>170.291</ele>
        <time>2017-08-18T10:38:55Z</time>
      </trkpt>
      <trkpt lat="44.21975" lon="0.84913">
        <ele>170.161</ele>
        <time>2017-08-18T10:38:57Z</time>
      </trkpt>
      <trkpt lat="44.2199" lon="0.8488">
        <ele>170.011</ele>
        <time>2017-08-18T10:39:04Z</time>
      </trkpt>
      <trkpt lat="44.22011" lon="0.84825">
        <ele>168.7</ele>
        <time>2017-08-18T10:39:13Z</time>
      </trkpt>
      <trkpt lat="44.22032" lon="0.84769">
        <ele>167.14</ele>
        <time>2017-08-18T10:39:21Z</time>
      </trkpt>
      <trkpt lat="44.22045" lon="0.8472">
        <ele>165.128</ele>
        <time>2017-08-18T10:39:27Z</time>
      </trkpt>
      <trkpt lat="44.22058" lon="0.84688">
        <ele>164.31</ele>
        <time>2017-08-18T10:39:31Z</time>
      </trkpt>
      <trkpt lat="44.22053" lon="0.84673">
        <ele>163.788</ele>
        <time>2017-08-18T10:39:33Z</time>
      </trkpt>
      <trkpt lat="44.22048" lon="0.84666">
        <ele>163.378</ele>
        <time>2017-08-18T10:39:34Z</time>
      </trkpt>
      <trkpt lat="44.22014" lon="0.84624">
        <ele>162.541</ele>
        <time>2017-08-18T10:39:40Z</time>
      </trkpt>
      <trkpt lat="44.21997" lon="0.84593">
        <ele>162.752</ele>
        <time>2017-08-18T10:39:45Z</time>
      </trkpt>
      <trkpt lat="44.21988" lon="0.84559">
        <ele>162.881</ele>
        <time>2017-08-18T10:39:52Z</time>
      </trkpt>
      <trkpt lat="44.21997" lon="0.84556">
        <ele>161.929</ele>
        <time>2017-08-18T10:39:56Z</time>
      </trkpt>
      <trkpt lat="44.22007" lon="0.84553">
        <ele>160.859</ele>
        <time>2017-08-18T10:40:00Z</time>
      </trkpt>
      <trkpt lat="44.22013" lon="0.8455">
        <ele>161.011</ele>
        <time>2017-08-18T10:40:04Z</time>
      </trkpt>
      <trkpt lat="44.22013" lon="0.84551">
        <ele>161.291</ele>
        <time>2017-08-18T10:40:10Z</time>
      </trkpt>
    </trkseg>
  </trk>
</gpx>